Time,TemperatureF,DewpointF,PressureIn,WindDirection,WindDirectionDegrees,WindSpeedMPH,WindSpeedGustMPH,Humidity,HourlyPrecipIn,Conditions,Clouds,dailyrainin,SoftwareType,DateUTC
2013-01-29 00:01:00,37.5,36.5,29.95,SE,141,0.0,1.0,96,0.00,,---,0.00,VWS V14.00,2013-01-29 05:01:00,
2013-01-29 00:02:00,37.5,36.2,29.95,SE,144,0.0,1.0,95,0.00,,---,0.00,VWS V14.00,2013-01-29 05:02:00,
2013-01-29 00:03:00,37.4,36.1,29.94,SE,144,1.0,1.0,95,0.00,,---,0.00,VWS V14.00,2013-01-29 05:03:00,
2013-01-29 00:04:00,37.4,36.1,29.95,SE,144,0.0,1.0,95,0.00,,---,0.00,VWS V14.00,2013-01-29 05:04:00,
2013-01-29 00:07:00,37.1,35.8,29.94,SE,144,0.0,1.0,95,0.00,,---,0.00,VWS V14.00,2013-01-29 05:07:00,
2013-01-29 00:08:00,37.1,35.8,29.94,SE,144,0.0,1.0,95,0.00,,---,0.00,VWS V14.00,2013-01-29 05:08:00,
2013-01-29 00:09:00,37.1,35.8,29.95,SE,144,0.0,1.0,95,0.00,,---,0.00,VWS V14.00,2013-01-29 05:09:00,
2013-01-29 00:11:00,37.2,36.2,29.94,SE,144,0.0,1.0,96,0.00,,---,0.00,VWS V14.00,2013-01-29 05:11:00,
2013-01-29 00:13:00,37.2,36.2,29.94,SE,144,1.0,1.0,96,0.00,,---,0.00,VWS V14.00,2013-01-29 05:13:00,
2013-01-29 00:14:00,37.2,36.2,29.94,SE,144,0.0,1.0,96,0.00,,---,0.00,VWS V14.00,2013-01-29 05:14:00,
2013-01-29 00:17:00,37.1,36.1,29.94,SE,142,0.0,1.0,96,0.00,,---,0.00,VWS V14.00,2013-01-29 05:17:00,
2013-01-29 00:19:00,37.0,35.7,29.94,SE,142,0.0,1.0,95,0.00,,---,0.00,VWS V14.00,2013-01-29 05:19:00,
2013-01-29 00:20:00,37.0,35.7,29.94,SE,142,0.0,1.0,95,0.00,,---,0.00,VWS V14.00,2013-01-29 05:20:00,
2013-01-29 00:22:00,36.9,35.6,29.94,SE,141,0.0,1.0,95,0.00,,---,0.00,VWS V14.00,2013-01-29 05:22:00,
2013-01-29 00:23:00,37.0,36.0,29.93,SE,142,0.0,1.0,96,0.00,,---,0.00,VWS V14.00,2013-01-29 05:23:00,
2013-01-29 00:25:00,37.0,36.0,29.93,SE,142,0.0,1.0,96,0.00,,---,0.00,VWS V14.00,2013-01-29 05:25:00,
2013-01-29 00:26:00,37.0,36.0,29.93,SE,142,0.0,1.0,96,0.00,,---,0.00,VWS V14.00,2013-01-29 05:26:00,
2013-01-29 00:28:00,37.0,36.0,29.93,SE,142,0.0,1.0,96,0.00,,---,0.00,VWS V14.00,2013-01-29 05:28:00,
2013-01-29 00:30:00,36.9,35.9,29.93,SE,142,0.0,1.0,96,0.00,,---,0.00,VWS V14.00,2013-01-29 05:30:00,
2013-01-29 00:31:00,37.0,36.0,29.93,SE,142,1.0,1.0,96,0.00,,---,0.00,VWS V14.00,2013-01-29 05:31:00,
2013-01-29 00:33:00,37.2,36.2,29.93,SSE,154,0.0,1.0,96,0.00,,---,0.00,VWS V14.00,2013-01-29 05:33:00,
2013-01-29 00:35:00,37.2,36.2,29.93,SSE,152,0.0,1.0,96,0.00,,---,0.00,VWS V14.00,2013-01-29 05:35:00,
2013-01-29 00:36:00,37.2,36.2,29.93,SSE,150,0.0,1.0,96,0.00,,---,0.00,VWS V14.00,2013-01-29 05:36:00,
2013-01-29 00:37:00,37.1,36.1,29.93,SSE,151,1.0,1.0,96,0.00,,---,0.00,VWS V14.00,2013-01-29 05:37:00,
2013-01-29 00:40:00,37.0,36.0,29.92,SE,146,0.0,1.0,96,0.00,,---,0.00,VWS V14.00,2013-01-29 05:40:00,
2013-01-29 00:41:00,37.0,36.0,29.92,SE,146,1.0,1.0,96,0.00,,---,0.00,VWS V14.00,2013-01-29 05:41:00,
2013-01-29 00:42:00,37.0,36.0,29.92,SE,146,0.0,1.0,96,0.00,,---,0.00,VWS V14.00,2013-01-29 05:42:00,
2013-01-29 00:44:00,37.0,36.0,29.92,SE,146,0.0,1.0,96,0.00,,---,0.00,VWS V14.00,2013-01-29 05:44:00,
2013-01-29 00:47:00,37.2,36.2,29.92,SSE,147,0.0,1.0,96,0.00,,---,0.00,VWS V14.00,2013-01-29 05:47:00,
2013-01-29 00:48:00,37.2,36.2,29.92,SSE,150,0.0,1.0,96,0.00,,---,0.00,VWS V14.00,2013-01-29 05:48:00,
2013-01-29 00:53:00,37.0,36.0,29.92,SE,140,0.0,1.0,96,0.00,,---,0.00,VWS V14.00,2013-01-29 05:53:00,
2013-01-29 00:55:00,37.1,36.1,29.92,SE,141,0.0,1.0,96,0.00,,---,0.00,VWS V14.00,2013-01-29 05:55:00,
2013-01-29 00:56:00,37.1,36.1,29.92,SE,141,0.0,1.0,96,0.00,,---,0.00,VWS V14.00,2013-01-29 05:56:00,
2013-01-29 00:58:00,37.1,36.1,29.92,SE,140,0.0,1.0,96,0.00,,---,0.00,VWS V14.00,2013-01-29 05:58:00,
2013-01-29 00:59:00,37.1,36.1,29.92,SE,142,0.0,1.0,96,0.00,,---,0.00,VWS V14.00,2013-01-29 05:59:00,
2013-01-29 01:01:00,37.1,36.1,29.92,SE,141,0.0,1.0,96,0.00,,---,0.00,VWS V14.00,2013-01-29 06:01:00,
2013-01-29 01:02:00,37.1,36.1,29.91,SE,142,0.0,1.0,96,0.00,,---,0.00,VWS V14.00,2013-01-29 06:02:00,
2013-01-29 01:04:00,37.1,36.1,29.91,SE,138,0.0,1.0,96,0.00,,---,0.00,VWS V14.00,2013-01-29 06:04:00,
2013-01-29 01:05:00,37.1,36.1,29.91,SE,138,0.0,1.0,96,0.00,,---,0.00,VWS V14.00,2013-01-29 06:05:00,
2013-01-29 01:06:00,37.1,36.1,29.91,SE,140,0.0,1.0,96,0.00,,---,0.00,VWS V14.00,2013-01-29 06:06:00,
2013-01-29 01:07:00,37.2,36.2,29.91,SSE,148,1.0,1.0,96,0.00,,---,0.00,VWS V14.00,2013-01-29 06:07:00,
2013-01-29 01:10:00,37.2,36.2,29.91,SE,142,0.0,1.0,96,0.00,,---,0.00,VWS V14.00,2013-01-29 06:10:00,
2013-01-29 01:11:00,37.1,36.1,29.91,SSE,150,0.0,1.0,96,0.00,,---,0.00,VWS V14.00,2013-01-29 06:11:00,
2013-01-29 01:13:00,37.1,36.1,29.90,SSE,150,1.0,1.0,96,0.00,,---,0.00,VWS V14.00,2013-01-29 06:13:00,
2013-01-29 01:16:00,37.0,36.0,29.90,SE,146,0.0,1.0,96,0.00,,---,0.00,VWS V14.00,2013-01-29 06:16:00,
2013-01-29 01:19:00,37.2,36.2,29.90,SSE,147,3.0,10.0,96,0.00,,---,0.00,VWS V14.00,2013-01-29 06:19:00,
2013-01-29 01:21:00,37.3,36.3,29.91,SSE,148,0.0,10.0,96,0.00,,---,0.00,VWS V14.00,2013-01-29 06:21:00,
2013-01-29 01:22:00,37.3,36.3,29.90,SSE,148,0.0,10.0,96,0.00,,---,0.00,VWS V14.00,2013-01-29 06:22:00,
2013-01-29 01:23:00,37.3,36.3,29.90,SSE,148,0.0,10.0,96,0.00,,---,0.00,VWS V14.00,2013-01-29 06:23:00,
2013-01-29 01:24:00,37.4,36.4,29.90,SSE,148,0.0,10.0,96,0.00,,---,0.00,VWS V14.00,2013-01-29 06:24:00,
2013-01-29 01:28:00,37.6,36.6,29.90,SSE,148,1.0,10.0,96,0.00,,---,0.00,VWS V14.00,2013-01-29 06:28:00,
2013-01-29 01:29:00,37.6,36.6,29.90,SSE,148,1.0,1.0,96,0.00,,---,0.00,VWS V14.00,2013-01-29 06:29:00,
2013-01-29 01:33:00,37.4,36.4,29.89,SSE,148,0.0,1.0,96,0.00,,---,0.00,VWS V14.00,2013-01-29 06:33:00,
2013-01-29 01:34:00,37.3,36.3,29.89,SSE,148,1.0,1.0,96,0.00,,---,0.00,VWS V14.00,2013-01-29 06:34:00,
2013-01-29 01:35:00,37.3,36.3,29.89,SSE,148,0.0,1.0,96,0.00,,---,0.00,VWS V14.00,2013-01-29 06:35:00,
2013-01-29 01:38:00,37.3,36.3,29.90,SSE,147,0.0,1.0,96,0.00,,---,0.00,VWS V14.00,2013-01-29 06:38:00,
2013-01-29 01:40:00,37.4,36.4,29.90,SSE,147,0.0,1.0,96,0.00,,---,0.00,VWS V14.00,2013-01-29 06:40:00,
2013-01-29 01:41:00,37.4,36.4,29.90,SSE,147,0.0,1.0,96,0.00,,---,0.00,VWS V14.00,2013-01-29 06:41:00,
2013-01-29 01:43:00,37.5,36.5,29.89,SE,146,0.0,1.0,96,0.00,,---,0.00,VWS V14.00,2013-01-29 06:43:00,
2013-01-29 01:47:00,37.4,36.4,29.89,SE,144,0.0,1.0,96,0.00,,---,0.00,VWS V14.00,2013-01-29 06:47:00,
2013-01-29 01:48:00,37.3,36.3,29.89,SE,144,1.0,1.0,96,0.00,,---,0.00,VWS V14.00,2013-01-29 06:48:00,
2013-01-29 01:49:00,37.3,36.3,29.89,SE,144,0.0,1.0,96,0.00,,---,0.00,VWS V14.00,2013-01-29 06:49:00,
2013-01-29 01:52:00,37.3,36.3,29.89,SE,144,0.0,1.0,96,0.00,,---,0.00,VWS V14.00,2013-01-29 06:52:00,
2013-01-29 01:53:00,37.3,36.3,29.89,SE,144,0.0,1.0,96,0.00,,---,0.00,VWS V14.00,2013-01-29 06:53:00,
2013-01-29 01:54:00,37.2,36.4,29.89,SE,142,1.0,1.0,97,0.00,,---,0.00,VWS V14.00,2013-01-29 06:54:00,
2013-01-29 01:57:00,37.1,36.3,29.89,SE,143,0.0,1.0,97,0.00,,---,0.00,VWS V14.00,2013-01-29 06:57:00,
2013-01-29 01:58:00,37.1,36.3,29.89,SE,143,0.0,1.0,97,0.00,,---,0.00,VWS V14.00,2013-01-29 06:58:00,
2013-01-29 02:00:00,37.2,36.4,29.89,SE,143,0.0,1.0,97,0.00,,---,0.00,VWS V14.00,2013-01-29 07:00:00,
2013-01-29 02:01:00,37.3,36.5,29.89,SE,143,0.0,1.0,97,0.00,,---,0.00,VWS V14.00,2013-01-29 07:01:00,
2013-01-29 02:02:00,37.3,36.5,29.89,SE,143,0.0,1.0,97,0.00,,---,0.00,VWS V14.00,2013-01-29 07:02:00,
2013-01-29 02:04:00,37.3,36.5,29.89,SE,143,0.0,1.0,97,0.00,,---,0.00,VWS V14.00,2013-01-29 07:04:00,
2013-01-29 02:05:00,37.4,36.6,29.89,SE,144,0.0,1.0,97,0.00,,---,0.00,VWS V14.00,2013-01-29 07:05:00,
2013-01-29 02:07:00,37.5,36.7,29.89,SE,144,0.0,1.0,97,0.00,,---,0.00,VWS V14.00,2013-01-29 07:07:00,
2013-01-29 02:08:00,37.7,36.9,29.89,SE,144,0.0,1.0,97,0.00,,---,0.00,VWS V14.00,2013-01-29 07:08:00,
2013-01-29 02:10:00,37.8,37.0,29.88,SE,144,0.0,1.0,97,0.00,,---,0.00,VWS V14.00,2013-01-29 07:10:00,
2013-01-29 02:11:00,37.9,37.1,29.89,SE,144,0.0,1.0,97,0.00,,---,0.00,VWS V14.00,2013-01-29 07:11:00,
2013-01-29 02:12:00,37.9,37.1,29.89,SE,145,0.0,1.0,97,0.00,,---,0.00,VWS V14.00,2013-01-29 07:12:00,
2013-01-29 02:13:00,37.9,37.1,29.89,SE,145,0.0,1.0,97,0.00,,---,0.00,VWS V14.00,2013-01-29 07:13:00,
2013-01-29 02:16:00,37.9,37.1,29.89,SSE,154,0.0,1.0,97,0.00,,---,0.00,VWS V14.00,2013-01-29 07:16:00,
2013-01-29 02:18:00,37.9,37.1,29.89,SSE,154,0.0,1.0,97,0.00,,---,0.00,VWS V14.00,2013-01-29 07:18:00,
2013-01-29 02:19:00,37.9,37.1,29.89,SSE,154,0.0,1.0,97,0.00,,---,0.00,VWS V14.00,2013-01-29 07:19:00,
2013-01-29 02:21:00,37.9,37.1,29.89,SSE,153,0.0,1.0,97,0.01,,---,0.01,VWS V14.00,2013-01-29 07:21:00,
2013-01-29 02:23:00,37.8,37.0,29.90,SSE,153,0.0,1.0,97,0.01,,---,0.01,VWS V14.00,2013-01-29 07:23:00,
2013-01-29 02:24:00,37.7,36.9,29.90,SSE,156,0.0,1.0,97,0.01,,---,0.01,VWS V14.00,2013-01-29 07:24:00,
2013-01-29 02:27:00,37.6,36.8,29.89,SSE,157,0.0,1.0,97,0.02,,---,0.02,VWS V14.00,2013-01-29 07:27:00,
2013-01-29 02:29:00,37.7,36.9,29.88,SE,146,1.0,1.0,97,0.03,,---,0.03,VWS V14.00,2013-01-29 07:29:00,
2013-01-29 02:33:00,37.5,36.7,29.86,SSE,148,1.0,2.0,97,0.04,,---,0.04,VWS V14.00,2013-01-29 07:33:00,
2013-01-29 02:34:00,37.4,36.6,29.85,SE,143,11.0,13.0,97,0.04,,---,0.04,VWS V14.00,2013-01-29 07:34:00,
2013-01-29 02:35:00,37.3,36.5,29.84,SSE,158,5.0,13.0,97,0.05,,---,0.05,VWS V14.00,2013-01-29 07:35:00,
2013-01-29 02:39:00,38.1,37.3,29.85,SSE,161,10.0,13.0,97,0.05,,---,0.05,VWS V14.00,2013-01-29 07:39:00,
2013-01-29 02:40:00,38.2,37.4,29.85,SE,144,8.0,14.0,97,0.06,,---,0.06,VWS V14.00,2013-01-29 07:40:00,
2013-01-29 02:41:00,38.2,37.4,29.84,SSE,154,9.0,14.0,97,0.06,,---,0.06,VWS V14.00,2013-01-29 07:41:00,
2013-01-29 02:43:00,38.3,37.5,29.83,SSE,166,1.0,14.0,97,0.06,,---,0.06,VWS V14.00,2013-01-29 07:43:00,
2013-01-29 02:45:00,38.7,37.9,29.83,SSE,152,5.0,14.0,97,0.07,,---,0.07,VWS V14.00,2013-01-29 07:45:00,
2013-01-29 02:47:00,38.9,38.1,29.83,SSE,159,0.0,14.0,97,0.07,,---,0.07,VWS V14.00,2013-01-29 07:47:00,
2013-01-29 02:48:00,38.9,38.1,29.83,SSE,151,0.0,14.0,97,0.07,,---,0.07,VWS V14.00,2013-01-29 07:48:00,
2013-01-29 02:52:00,38.9,38.1,29.80,South,183,11.0,14.0,97,0.07,,---,0.07,VWS V14.00,2013-01-29 07:52:00,
2013-01-29 02:53:00,38.9,38.1,29.79,SSE,161,7.0,14.0,97,0.07,,---,0.07,VWS V14.00,2013-01-29 07:53:00,
2013-01-29 02:54:00,38.9,38.1,29.79,South,182,5.0,14.0,97,0.07,,---,0.07,VWS V14.00,2013-01-29 07:54:00,
2013-01-29 02:58:00,38.9,38.1,29.79,South,172,1.0,14.0,97,0.07,,---,0.07,VWS V14.00,2013-01-29 07:58:00,
2013-01-29 02:59:00,38.9,38.1,29.79,South,180,1.0,2.0,97,0.07,,---,0.07,VWS V14.00,2013-01-29 07:59:00,
2013-01-29 03:04:00,38.9,38.1,29.79,South,183,1.0,12.0,97,0.07,,---,0.07,VWS V14.00,2013-01-29 08:04:00,
2013-01-29 03:07:00,38.9,38.1,29.78,SSE,167,0.0,12.0,97,0.08,,---,0.08,VWS V14.00,2013-01-29 08:07:00,
2013-01-29 03:09:00,38.9,38.1,30.11,South,181,1.0,12.0,97,0.08,,---,0.08,VWS V14.00,2013-01-29 08:09:00,
2013-01-29 03:10:00,38.9,38.1,30.11,SSE,167,0.0,12.0,97,0.08,,---,0.08,VWS V14.00,2013-01-29 08:10:00,
2013-01-29 03:15:00,38.9,38.1,30.11,South,178,1.0,13.0,97,0.09,,---,0.09,VWS V14.00,2013-01-29 08:15:00,
2013-01-29 03:16:00,38.9,38.1,30.11,South,176,1.0,13.0,97,0.09,,---,0.09,VWS V14.00,2013-01-29 08:16:00,
2013-01-29 03:20:00,38.9,38.1,30.10,South,180,5.0,15.0,97,0.12,,---,0.12,VWS V14.00,2013-01-29 08:20:00,
2013-01-29 03:21:00,38.9,38.1,30.10,SSE,165,1.0,15.0,97,0.12,,---,0.12,VWS V14.00,2013-01-29 08:21:00,
2013-01-29 03:22:00,38.9,38.1,29.77,South,175,13.0,15.0,97,0.13,,---,0.13,VWS V14.00,2013-01-29 08:22:00,
2013-01-29 03:26:00,38.9,38.1,30.09,South,182,5.0,15.0,97,0.14,,---,0.14,VWS V14.00,2013-01-29 08:26:00,
2013-01-29 03:27:00,38.9,38.1,30.09,South,182,7.0,15.0,97,0.14,,---,0.14,VWS V14.00,2013-01-29 08:27:00,
2013-01-29 03:28:00,38.9,38.1,30.09,South,187,10.0,15.0,97,0.14,,---,0.14,VWS V14.00,2013-01-29 08:28:00,
2013-01-29 03:33:00,38.9,38.1,30.10,SSW,206,1.0,3.0,97,0.11,,---,0.14,VWS V14.00,2013-01-29 08:33:00,
2013-01-29 03:34:00,38.9,38.1,30.10,SSW,208,0.0,3.0,97,0.11,,---,0.14,VWS V14.00,2013-01-29 08:34:00,
2013-01-29 03:35:00,38.9,38.1,30.11,WSW,238,0.0,3.0,97,0.11,,---,0.14,VWS V14.00,2013-01-29 08:35:00,
2013-01-29 03:37:00,38.9,38.1,29.78,WSW,238,0.0,3.0,97,0.11,,---,0.14,VWS V14.00,2013-01-29 08:37:00,
2013-01-29 03:39:00,38.9,38.1,29.78,WSW,238,0.0,3.0,97,0.11,,---,0.14,VWS V14.00,2013-01-29 08:39:00,
2013-01-29 03:41:00,38.9,38.1,29.78,WSW,238,0.0,3.0,97,0.11,,---,0.14,VWS V14.00,2013-01-29 08:41:00,
2013-01-29 03:44:00,38.9,38.1,29.78,WSW,238,0.0,3.0,97,0.11,,---,0.14,VWS V14.00,2013-01-29 08:44:00,
2013-01-29 03:46:00,38.9,38.1,29.77,NW,319,0.0,3.0,97,0.11,,---,0.14,VWS V14.00,2013-01-29 08:46:00,
2013-01-29 03:47:00,38.9,38.1,29.77,NW,319,0.0,3.0,97,0.11,,---,0.14,VWS V14.00,2013-01-29 08:47:00,
2013-01-29 03:49:00,38.9,38.1,29.77,NW,319,0.0,3.0,97,0.11,,---,0.14,VWS V14.00,2013-01-29 08:49:00,
2013-01-29 03:50:00,38.9,38.1,29.77,NW,319,0.0,3.0,97,0.11,,---,0.14,VWS V14.00,2013-01-29 08:50:00,
2013-01-29 03:53:00,38.9,38.1,29.77,NW,319,0.0,3.0,97,0.11,,---,0.14,VWS V14.00,2013-01-29 08:53:00,
2013-01-29 03:54:00,38.9,38.1,29.77,NW,319,0.0,3.0,97,0.11,,---,0.14,VWS V14.00,2013-01-29 08:54:00,
2013-01-29 03:55:00,38.9,38.1,29.77,NW,319,0.0,3.0,97,0.11,,---,0.14,VWS V14.00,2013-01-29 08:55:00,
2013-01-29 03:58:00,38.9,38.1,29.77,NW,319,0.0,3.0,97,0.11,,---,0.14,VWS V14.00,2013-01-29 08:58:00,
2013-01-29 04:00:00,38.9,38.1,29.76,NW,323,0.0,1.0,97,0.07,,---,0.14,VWS V14.00,2013-01-29 09:00:00,
2013-01-29 04:02:00,38.9,38.1,29.76,NW,323,0.0,1.0,97,0.07,,---,0.14,VWS V14.00,2013-01-29 09:02:00,
2013-01-29 04:03:00,38.9,38.1,29.76,NW,323,0.0,1.0,97,0.07,,---,0.14,VWS V14.00,2013-01-29 09:03:00,
2013-01-29 04:06:00,38.9,38.1,29.76,NW,324,0.0,1.0,97,0.07,,---,0.14,VWS V14.00,2013-01-29 09:06:00,
2013-01-29 04:08:00,38.9,38.1,29.75,NW,324,0.0,1.0,97,0.07,,---,0.14,VWS V14.00,2013-01-29 09:08:00,
2013-01-29 04:10:00,38.9,38.1,29.75,NW,325,0.0,1.0,97,0.07,,---,0.14,VWS V14.00,2013-01-29 09:10:00,
2013-01-29 04:11:00,38.9,38.1,29.75,NW,324,1.0,1.0,97,0.07,,---,0.14,VWS V14.00,2013-01-29 09:11:00,
2013-01-29 04:15:00,38.9,38.1,29.75,NW,323,0.0,1.0,97,0.07,,---,0.14,VWS V14.00,2013-01-29 09:15:00,
2013-01-29 04:16:00,38.9,38.1,29.75,NW,322,1.0,1.0,97,0.07,,---,0.14,VWS V14.00,2013-01-29 09:16:00,
2013-01-29 04:18:00,38.9,38.1,29.75,SSE,161,0.0,1.0,97,0.07,,---,0.14,VWS V14.00,2013-01-29 09:18:00,
2013-01-29 04:21:00,38.9,38.1,29.74,SSE,157,0.0,1.0,97,0.07,,---,0.14,VWS V14.00,2013-01-29 09:21:00,
2013-01-29 04:22:00,38.9,38.1,29.74,SSE,157,0.0,1.0,97,0.07,,---,0.14,VWS V14.00,2013-01-29 09:22:00,
2013-01-29 04:24:00,38.9,38.1,29.74,SSE,147,0.0,1.0,97,0.07,,---,0.14,VWS V14.00,2013-01-29 09:24:00,
2013-01-29 04:26:00,38.9,38.1,29.74,South,186,0.0,1.0,97,0.07,,---,0.14,VWS V14.00,2013-01-29 09:26:00,
2013-01-29 04:27:00,38.9,38.1,29.74,South,186,0.0,1.0,97,0.07,,---,0.14,VWS V14.00,2013-01-29 09:27:00,
2013-01-29 04:28:00,38.9,38.1,29.74,South,186,0.0,1.0,97,0.07,,---,0.14,VWS V14.00,2013-01-29 09:28:00,
2013-01-29 04:31:00,38.9,38.1,29.73,SSE,167,0.0,1.0,97,0.00,,---,0.14,VWS V14.00,2013-01-29 09:31:00,
2013-01-29 04:32:00,38.9,38.1,29.73,SSE,168,0.0,1.0,97,0.00,,---,0.14,VWS V14.00,2013-01-29 09:32:00,
2013-01-29 04:34:00,38.9,38.1,29.73,SSE,168,0.0,1.0,97,0.00,,---,0.14,VWS V14.00,2013-01-29 09:34:00,
2013-01-29 04:38:00,38.9,38.1,29.73,South,169,0.0,1.0,97,0.00,,---,0.14,VWS V14.00,2013-01-29 09:38:00,
2013-01-29 04:39:00,38.9,38.1,29.73,South,169,0.0,1.0,97,0.00,,---,0.14,VWS V14.00,2013-01-29 09:39:00,
2013-01-29 04:41:00,38.9,38.1,29.73,South,169,0.0,1.0,97,0.00,,---,0.14,VWS V14.00,2013-01-29 09:41:00,
2013-01-29 04:43:00,38.9,38.1,29.72,South,169,0.0,1.0,97,0.00,,---,0.14,VWS V14.00,2013-01-29 09:43:00,
2013-01-29 04:45:00,38.9,38.1,29.73,South,170,0.0,1.0,97,0.00,,---,0.14,VWS V14.00,2013-01-29 09:45:00,
2013-01-29 04:46:00,38.9,38.1,29.72,South,170,1.0,1.0,97,0.00,,---,0.14,VWS V14.00,2013-01-29 09:46:00,
2013-01-29 04:47:00,38.9,38.1,29.72,South,170,0.0,1.0,97,0.00,,---,0.14,VWS V14.00,2013-01-29 09:47:00,
2013-01-29 04:48:00,38.9,38.1,29.72,SSE,167,1.0,1.0,97,0.00,,---,0.14,VWS V14.00,2013-01-29 09:48:00,
2013-01-29 04:51:00,38.9,38.1,29.72,South,171,0.0,1.0,97,0.00,,---,0.14,VWS V14.00,2013-01-29 09:51:00,
2013-01-29 04:52:00,38.9,38.1,29.72,South,171,0.0,1.0,97,0.00,,---,0.14,VWS V14.00,2013-01-29 09:52:00,
2013-01-29 04:54:00,38.9,38.1,29.72,South,178,0.0,1.0,97,0.00,,---,0.14,VWS V14.00,2013-01-29 09:54:00,
2013-01-29 04:56:00,38.9,38.1,29.72,South,178,0.0,1.0,97,0.01,,---,0.15,VWS V14.00,2013-01-29 09:56:00,
2013-01-29 04:59:00,38.9,38.1,29.72,South,178,0.0,0.0,97,0.01,,---,0.15,VWS V14.00,2013-01-29 09:59:00,
2013-01-29 05:00:00,38.9,38.1,29.72,South,176,0.0,1.0,97,0.02,,---,0.16,VWS V14.00,2013-01-29 10:00:00,
2013-01-29 05:03:00,38.9,38.1,29.72,South,181,0.0,1.0,97,0.02,,---,0.16,VWS V14.00,2013-01-29 10:03:00,
2013-01-29 05:04:00,38.9,38.1,29.72,South,181,1.0,1.0,97,0.02,,---,0.16,VWS V14.00,2013-01-29 10:04:00,
2013-01-29 05:05:00,38.9,38.1,29.71,South,186,0.0,1.0,97,0.02,,---,0.16,VWS V14.00,2013-01-29 10:05:00,
2013-01-29 05:10:00,38.9,38.1,29.71,South,186,0.0,1.0,97,0.02,,---,0.16,VWS V14.00,2013-01-29 10:10:00,
2013-01-29 05:11:00,38.9,38.1,29.70,South,180,0.0,1.0,97,0.02,,---,0.16,VWS V14.00,2013-01-29 10:11:00,
2013-01-29 05:15:00,38.9,38.1,29.70,South,191,1.0,2.0,97,0.02,,---,0.16,VWS V14.00,2013-01-29 10:15:00,
2013-01-29 05:16:00,38.9,38.1,29.70,South,190,0.0,2.0,97,0.02,,---,0.16,VWS V14.00,2013-01-29 10:16:00,
2013-01-29 05:20:00,38.9,38.1,29.69,South,173,1.0,2.0,97,0.02,,---,0.16,VWS V14.00,2013-01-29 10:20:00,
2013-01-29 05:21:00,38.9,38.1,29.69,South,178,1.0,2.0,97,0.02,,---,0.16,VWS V14.00,2013-01-29 10:21:00,
2013-01-29 05:22:00,38.9,38.1,29.69,SSE,159,0.0,3.0,97,0.02,,---,0.16,VWS V14.00,2013-01-29 10:22:00,
2013-01-29 05:26:00,38.9,38.1,29.69,South,178,0.0,3.0,97,0.02,,---,0.16,VWS V14.00,2013-01-29 10:26:00,
2013-01-29 05:27:00,38.9,38.1,29.69,South,176,0.0,3.0,97,0.02,,---,0.16,VWS V14.00,2013-01-29 10:27:00,
2013-01-29 05:29:00,38.9,38.1,29.69,South,180,0.0,1.0,97,0.02,,---,0.16,VWS V14.00,2013-01-29 10:29:00,
2013-01-29 05:31:00,38.9,38.1,30.03,SSW,205,0.0,1.0,97,0.02,,---,0.16,VWS V14.00,2013-01-29 10:31:00,
2013-01-29 05:32:00,38.9,38.1,29.69,SSW,197,0.0,1.0,97,0.02,,---,0.16,VWS V14.00,2013-01-29 10:32:00,
2013-01-29 05:33:00,38.9,38.1,29.69,South,190,2.0,2.0,97,0.02,,---,0.16,VWS V14.00,2013-01-29 10:33:00,
2013-01-29 05:34:00,38.9,38.1,29.69,South,169,2.0,2.0,97,0.02,,---,0.16,VWS V14.00,2013-01-29 10:34:00,
2013-01-29 05:37:00,38.9,38.1,30.02,South,170,1.0,2.0,97,0.02,,---,0.16,VWS V14.00,2013-01-29 10:37:00,
2013-01-29 05:39:00,38.9,38.1,30.02,South,174,2.0,2.0,97,0.02,,---,0.16,VWS V14.00,2013-01-29 10:39:00,
2013-01-29 05:43:00,38.9,38.1,30.02,South,190,2.0,2.0,97,0.02,,---,0.16,VWS V14.00,2013-01-29 10:43:00,
2013-01-29 05:44:00,38.9,38.1,30.02,SSW,192,0.0,2.0,97,0.02,,---,0.16,VWS V14.00,2013-01-29 10:44:00,
2013-01-29 05:45:00,38.9,38.1,30.02,South,177,0.0,3.0,97,0.02,,---,0.16,VWS V14.00,2013-01-29 10:45:00,
2013-01-29 05:49:00,38.9,38.1,30.02,South,174,0.0,3.0,97,0.02,,---,0.16,VWS V14.00,2013-01-29 10:49:00,
2013-01-29 05:50:00,38.9,38.1,30.02,South,174,0.0,3.0,97,0.02,,---,0.16,VWS V14.00,2013-01-29 10:50:00,
2013-01-29 05:51:00,38.9,38.1,30.02,South,175,0.0,3.0,97,0.02,,---,0.16,VWS V14.00,2013-01-29 10:51:00,
2013-01-29 05:52:00,38.9,38.1,30.02,South,175,0.0,3.0,97,0.02,,---,0.16,VWS V14.00,2013-01-29 10:52:00,
2013-01-29 05:54:00,38.9,38.1,30.01,South,189,2.0,3.0,97,0.02,,---,0.16,VWS V14.00,2013-01-29 10:54:00,
2013-01-29 05:56:00,38.9,38.1,30.01,SSW,195,0.0,4.0,97,0.02,,---,0.16,VWS V14.00,2013-01-29 10:56:00,
2013-01-29 05:57:00,38.9,38.1,30.01,SSW,213,0.0,4.0,97,0.02,,---,0.16,VWS V14.00,2013-01-29 10:57:00,
2013-01-29 05:59:00,38.9,38.1,30.02,SSW,199,0.0,2.0,97,0.02,,---,0.17,VWS V14.00,2013-01-29 10:59:00,
2013-01-29 06:02:00,38.9,38.1,30.01,SSE,149,0.0,3.0,97,0.02,,---,0.17,VWS V14.00,2013-01-29 11:02:00,
2013-01-29 06:03:00,38.9,38.1,30.01,South,177,3.0,4.0,97,0.02,,---,0.17,VWS V14.00,2013-01-29 11:03:00,
2013-01-29 06:04:00,38.9,38.1,30.01,South,177,6.0,6.0,97,0.03,,---,0.18,VWS V14.00,2013-01-29 11:04:00,
2013-01-29 06:06:00,38.9,38.1,30.01,South,170,0.0,6.0,97,0.03,,---,0.18,VWS V14.00,2013-01-29 11:06:00,
2013-01-29 06:08:00,38.9,38.1,30.02,SSW,207,1.0,6.0,97,0.03,,---,0.18,VWS V14.00,2013-01-29 11:08:00,
2013-01-29 06:10:00,38.9,38.1,30.02,South,169,0.0,6.0,97,0.03,,---,0.18,VWS V14.00,2013-01-29 11:10:00,
2013-01-29 06:11:00,38.9,38.1,30.02,South,169,0.0,6.0,97,0.04,,---,0.19,VWS V14.00,2013-01-29 11:11:00,
2013-01-29 06:13:00,38.9,38.1,30.02,South,183,1.0,6.0,97,0.04,,---,0.19,VWS V14.00,2013-01-29 11:13:00,
2013-01-29 06:15:00,38.9,38.1,30.02,SSW,209,0.0,6.0,97,0.04,,---,0.19,VWS V14.00,2013-01-29 11:15:00,
2013-01-29 06:16:00,38.9,38.1,30.02,SSE,164,2.0,6.0,97,0.04,,---,0.19,VWS V14.00,2013-01-29 11:16:00,
2013-01-29 06:18:00,38.9,38.1,30.02,South,171,0.0,6.0,97,0.05,,---,0.20,VWS V14.00,2013-01-29 11:18:00,
2013-01-29 06:21:00,38.9,38.1,30.02,South,188,1.0,6.0,97,0.06,,---,0.21,VWS V14.00,2013-01-29 11:21:00,
2013-01-29 06:23:00,38.9,38.1,30.02,South,175,1.0,6.0,97,0.06,,---,0.21,VWS V14.00,2013-01-29 11:23:00,
2013-01-29 06:25:00,38.9,38.1,30.01,SSW,192,0.0,6.0,97,0.07,,---,0.22,VWS V14.00,2013-01-29 11:25:00,
2013-01-29 06:27:00,38.9,38.1,30.01,South,177,0.0,6.0,97,0.08,,---,0.23,VWS V14.00,2013-01-29 11:27:00,
2013-01-29 06:29:00,38.9,38.1,30.01,SSE,167,0.0,1.0,97,0.07,,---,0.23,VWS V14.00,2013-01-29 11:29:00,
2013-01-29 06:31:00,38.9,38.1,30.01,SSE,168,1.0,2.0,97,0.08,,---,0.24,VWS V14.00,2013-01-29 11:31:00,
2013-01-29 06:32:00,38.9,38.1,30.01,South,191,2.0,2.0,97,0.08,,---,0.24,VWS V14.00,2013-01-29 11:32:00,
2013-01-29 06:34:00,38.9,38.1,30.01,South,184,0.0,4.0,97,0.08,,---,0.24,VWS V14.00,2013-01-29 11:34:00,
2013-01-29 06:35:00,38.9,38.1,30.01,South,171,1.0,4.0,97,0.08,,---,0.24,VWS V14.00,2013-01-29 11:35:00,
2013-01-29 06:40:00,38.9,38.1,30.01,South,179,1.0,7.0,97,0.08,,---,0.24,VWS V14.00,2013-01-29 11:40:00,
2013-01-29 06:41:00,38.9,38.1,30.02,South,190,2.0,7.0,97,0.08,,---,0.24,VWS V14.00,2013-01-29 11:41:00,
2013-01-29 06:44:00,38.9,38.1,30.02,South,173,0.0,7.0,97,0.08,,---,0.24,VWS V14.00,2013-01-29 11:44:00,
2013-01-29 06:46:00,38.9,38.1,30.02,South,188,0.0,7.0,97,0.08,,---,0.24,VWS V14.00,2013-01-29 11:46:00,
2013-01-29 06:47:00,38.9,38.1,30.02,South,182,1.0,7.0,97,0.08,,---,0.24,VWS V14.00,2013-01-29 11:47:00,
2013-01-29 06:48:00,38.9,38.1,30.02,SSW,201,0.0,7.0,97,0.08,,---,0.24,VWS V14.00,2013-01-29 11:48:00,
2013-01-29 06:49:00,38.9,38.1,30.02,SSW,197,1.0,7.0,97,0.08,,---,0.24,VWS V14.00,2013-01-29 11:49:00,
2013-01-29 06:51:00,38.9,38.1,30.02,South,184,1.0,7.0,97,0.08,,---,0.24,VWS V14.00,2013-01-29 11:51:00,
2013-01-29 06:54:00,38.9,38.1,30.02,South,176,1.0,7.0,97,0.08,,---,0.24,VWS V14.00,2013-01-29 11:54:00,
2013-01-29 06:56:00,38.9,38.1,30.02,South,171,1.0,7.0,97,0.08,,---,0.24,VWS V14.00,2013-01-29 11:56:00,
2013-01-29 06:57:00,38.9,38.1,30.02,SSW,196,1.0,7.0,97,0.08,,---,0.24,VWS V14.00,2013-01-29 11:57:00,
2013-01-29 07:01:00,38.9,38.1,29.85,South,171,2.0,5.0,97,0.09,,---,0.25,VWS V14.00,2013-01-29 12:01:00,
2013-01-29 07:02:00,38.9,38.1,29.85,South,182,1.0,5.0,97,0.09,,---,0.25,VWS V14.00,2013-01-29 12:02:00,
2013-01-29 07:03:00,38.9,38.1,29.85,SSW,198,3.0,5.0,97,0.09,,---,0.25,VWS V14.00,2013-01-29 12:03:00,
2013-01-29 07:06:00,38.9,38.1,29.85,South,180,0.0,5.0,97,0.09,,---,0.25,VWS V14.00,2013-01-29 12:06:00,
2013-01-29 07:08:00,38.9,38.1,29.85,South,170,0.0,5.0,97,0.09,,---,0.25,VWS V14.00,2013-01-29 12:08:00,
2013-01-29 07:09:00,38.9,38.1,29.85,South,175,0.0,5.0,97,0.09,,---,0.25,VWS V14.00,2013-01-29 12:09:00,
2013-01-29 07:12:00,38.9,38.1,29.85,South,189,1.0,5.0,97,0.09,,---,0.25,VWS V14.00,2013-01-29 12:12:00,
2013-01-29 07:15:00,38.9,38.1,29.85,SSW,211,0.0,5.0,97,0.09,,---,0.25,VWS V14.00,2013-01-29 12:15:00,
2013-01-29 07:16:00,38.9,38.1,29.85,SSW,194,0.0,5.0,97,0.09,,---,0.25,VWS V14.00,2013-01-29 12:16:00,
2013-01-29 07:17:00,38.9,38.1,29.85,South,171,1.0,5.0,97,0.09,,---,0.25,VWS V14.00,2013-01-29 12:17:00,
2013-01-29 07:18:00,38.9,38.1,29.85,SSE,168,1.0,5.0,97,0.09,,---,0.25,VWS V14.00,2013-01-29 12:18:00,
2013-01-29 07:22:00,38.9,38.1,29.85,SSW,200,1.0,5.0,97,0.09,,---,0.25,VWS V14.00,2013-01-29 12:22:00,
2013-01-29 07:24:00,38.9,38.1,29.85,SSW,194,0.0,5.0,97,0.09,,---,0.25,VWS V14.00,2013-01-29 12:24:00,
2013-01-29 07:27:00,38.9,38.1,29.84,SSW,192,2.0,5.0,97,0.09,,---,0.25,VWS V14.00,2013-01-29 12:27:00,
2013-01-29 07:30:00,38.9,38.1,29.84,SSW,203,1.0,2.0,97,0.02,,---,0.25,VWS V14.00,2013-01-29 12:30:00,
2013-01-29 07:31:00,38.9,38.1,29.84,SSW,203,0.0,3.0,97,0.02,,---,0.25,VWS V14.00,2013-01-29 12:31:00,
2013-01-29 07:33:00,38.9,38.1,29.85,SSW,194,0.0,4.0,97,0.02,,---,0.25,VWS V14.00,2013-01-29 12:33:00,
2013-01-29 07:36:00,38.9,38.1,29.84,SW,221,4.0,4.0,97,0.02,,---,0.25,VWS V14.00,2013-01-29 12:36:00,
2013-01-29 07:37:00,38.9,38.1,29.85,SW,214,1.0,5.0,97,0.02,,---,0.25,VWS V14.00,2013-01-29 12:37:00,
2013-01-29 07:38:00,38.9,38.1,29.85,South,182,2.0,5.0,97,0.02,,---,0.25,VWS V14.00,2013-01-29 12:38:00,
2013-01-29 07:40:00,38.9,38.1,29.85,South,184,1.0,5.0,97,0.02,,---,0.25,VWS V14.00,2013-01-29 12:40:00,
2013-01-29 07:42:00,38.9,38.1,29.84,SSW,213,0.0,5.0,97,0.02,,---,0.25,VWS V14.00,2013-01-29 12:42:00,
2013-01-29 07:43:00,38.9,38.1,29.85,South,173,1.0,5.0,97,0.02,,---,0.25,VWS V14.00,2013-01-29 12:43:00,
2013-01-29 07:45:00,38.9,38.1,29.84,South,171,0.0,5.0,97,0.02,,---,0.25,VWS V14.00,2013-01-29 12:45:00,
2013-01-29 07:48:00,38.9,38.1,29.84,South,175,1.0,5.0,97,0.02,,---,0.25,VWS V14.00,2013-01-29 12:48:00,
2013-01-29 07:49:00,38.9,38.1,29.84,SSE,161,0.0,5.0,97,0.02,,---,0.25,VWS V14.00,2013-01-29 12:49:00,
2013-01-29 07:50:00,38.9,38.1,29.84,South,173,1.0,5.0,97,0.02,,---,0.25,VWS V14.00,2013-01-29 12:50:00,
2013-01-29 07:51:00,38.9,38.1,29.84,South,189,0.0,5.0,97,0.02,,---,0.25,VWS V14.00,2013-01-29 12:51:00,
2013-01-29 07:55:00,38.9,38.1,29.83,SSW,195,0.0,5.0,97,0.02,,---,0.25,VWS V14.00,2013-01-29 12:55:00,
2013-01-29 07:56:00,38.9,38.1,29.83,SSW,195,0.0,5.0,97,0.02,,---,0.25,VWS V14.00,2013-01-29 12:56:00,
2013-01-29 07:57:00,38.9,38.1,29.84,SSW,209,0.0,5.0,97,0.02,,---,0.25,VWS V14.00,2013-01-29 12:57:00,
2013-01-29 07:58:00,38.9,38.1,29.83,SSW,210,2.0,3.0,97,0.01,,---,0.25,VWS V14.00,2013-01-29 12:58:00,
2013-01-29 08:00:00,38.9,38.1,29.83,South,189,1.0,3.0,97,0.01,,---,0.25,VWS V14.00,2013-01-29 13:00:00,
2013-01-29 08:02:00,38.9,38.1,29.84,SW,236,2.0,4.0,97,0.01,,---,0.25,VWS V14.00,2013-01-29 13:02:00,
2013-01-29 08:04:00,38.9,38.1,29.84,SSW,205,0.0,4.0,97,0.01,,---,0.25,VWS V14.00,2013-01-29 13:04:00,
2013-01-29 08:07:00,38.9,38.1,29.84,SW,234,1.0,6.0,97,0.01,,---,0.25,VWS V14.00,2013-01-29 13:07:00,
2013-01-29 08:10:00,38.9,38.1,29.85,SSW,210,1.0,6.0,97,0.01,,---,0.25,VWS V14.00,2013-01-29 13:10:00,
2013-01-29 08:12:00,38.9,38.1,29.85,SSW,196,0.0,9.0,97,0.01,,---,0.25,VWS V14.00,2013-01-29 13:12:00,
2013-01-29 08:13:00,38.9,38.1,29.85,South,190,3.0,9.0,97,0.01,,---,0.25,VWS V14.00,2013-01-29 13:13:00,
2013-01-29 08:15:00,38.9,38.1,29.85,SSW,192,0.0,9.0,97,0.01,,---,0.25,VWS V14.00,2013-01-29 13:15:00,
2013-01-29 08:16:00,38.9,38.1,29.85,SW,225,1.0,9.0,97,0.01,,---,0.25,VWS V14.00,2013-01-29 13:16:00,
2013-01-29 08:18:00,38.9,38.1,29.85,West,268,2.0,9.0,97,0.01,,---,0.25,VWS V14.00,2013-01-29 13:18:00,
2013-01-29 08:20:00,38.9,38.1,29.85,SSW,198,1.0,9.0,97,0.01,,---,0.25,VWS V14.00,2013-01-29 13:20:00,
2013-01-29 08:22:00,38.9,38.1,29.85,SSW,202,1.0,9.0,97,0.01,,---,0.25,VWS V14.00,2013-01-29 13:22:00,
2013-01-29 08:23:00,38.9,38.1,29.84,SSE,165,7.0,9.0,97,0.01,,---,0.25,VWS V14.00,2013-01-29 13:23:00,
2013-01-29 08:25:00,38.9,38.1,29.84,SSW,213,2.0,9.0,97,0.01,,---,0.25,VWS V14.00,2013-01-29 13:25:00,
2013-01-29 08:28:00,38.9,38.1,29.84,SSW,208,5.0,9.0,97,0.01,,---,0.25,VWS V14.00,2013-01-29 13:28:00,
2013-01-29 08:29:00,38.9,38.1,29.84,SSW,203,2.0,2.0,97,0.00,,---,0.25,VWS V14.00,2013-01-29 13:29:00,
2013-01-29 08:30:00,38.9,38.1,29.84,SSW,211,2.0,7.0,97,0.00,,---,0.25,VWS V14.00,2013-01-29 13:30:00,
2013-01-29 08:34:00,38.9,38.1,29.85,SW,215,5.0,7.0,97,0.00,,---,0.25,VWS V14.00,2013-01-29 13:34:00,
2013-01-29 08:35:00,38.9,38.1,29.85,SW,227,0.0,9.0,97,0.00,,---,0.25,VWS V14.00,2013-01-29 13:35:00,
2013-01-29 08:36:00,38.9,38.1,29.85,SSW,199,1.0,9.0,97,0.00,,---,0.25,VWS V14.00,2013-01-29 13:36:00,
2013-01-29 08:39:00,38.9,38.1,29.84,South,173,2.0,9.0,97,0.00,,---,0.25,VWS V14.00,2013-01-29 13:39:00,
2013-01-29 08:40:00,38.9,38.1,29.84,SSW,195,0.0,9.0,97,0.00,,---,0.25,VWS V14.00,2013-01-29 13:40:00,
2013-01-29 08:41:00,38.9,38.1,29.84,SSE,165,0.0,9.0,97,0.00,,---,0.25,VWS V14.00,2013-01-29 13:41:00,
2013-01-29 08:42:00,38.9,38.1,29.84,SSW,200,2.0,9.0,97,0.00,,---,0.25,VWS V14.00,2013-01-29 13:42:00,
2013-01-29 08:44:00,38.9,38.1,29.84,South,183,1.0,9.0,97,0.00,,---,0.25,VWS V14.00,2013-01-29 13:44:00,
2013-01-29 08:45:00,38.9,38.1,29.84,SSE,162,0.0,9.0,97,0.00,,---,0.25,VWS V14.00,2013-01-29 13:45:00,
2013-01-29 08:47:00,38.9,38.1,29.84,SSE,158,2.0,9.0,97,0.00,,---,0.25,VWS V14.00,2013-01-29 13:47:00,
2013-01-29 08:48:00,38.9,38.1,29.85,SSW,212,1.0,9.0,97,0.00,,---,0.25,VWS V14.00,2013-01-29 13:48:00,
2013-01-29 08:49:00,38.9,38.1,29.85,SSW,198,0.0,9.0,97,0.00,,---,0.25,VWS V14.00,2013-01-29 13:49:00,
2013-01-29 08:52:00,38.9,38.1,29.85,WSW,239,3.0,9.0,97,0.00,,---,0.25,VWS V14.00,2013-01-29 13:52:00,
2013-01-29 08:54:00,38.9,38.1,29.84,South,178,0.0,9.0,97,0.00,,---,0.25,VWS V14.00,2013-01-29 13:54:00,
2013-01-29 08:57:00,38.9,38.1,29.84,SW,221,0.0,9.0,97,0.00,,---,0.25,VWS V14.00,2013-01-29 13:57:00,
2013-01-29 08:59:00,38.9,38.1,29.84,South,185,1.0,3.0,97,0.00,,---,0.25,VWS V14.00,2013-01-29 13:59:00,
2013-01-29 09:02:00,38.9,38.1,29.84,South,183,2.0,3.0,97,0.00,,---,0.25,VWS V14.00,2013-01-29 14:02:00,
2013-01-29 09:04:00,38.9,38.1,29.84,SSW,205,3.0,7.0,97,0.00,,---,0.25,VWS V14.00,2013-01-29 14:04:00,
2013-01-29 09:06:00,38.9,38.1,29.84,SSW,211,0.0,7.0,97,0.00,,---,0.25,VWS V14.00,2013-01-29 14:06:00,
2013-01-29 09:07:00,38.9,38.1,29.84,SW,215,3.0,7.0,97,0.00,,---,0.25,VWS V14.00,2013-01-29 14:07:00,
2013-01-29 09:09:00,38.9,38.1,29.84,SW,227,1.0,7.0,97,0.00,,---,0.25,VWS V14.00,2013-01-29 14:09:00,
2013-01-29 09:11:00,38.9,38.1,29.84,SSW,203,0.0,7.0,97,0.00,,---,0.25,VWS V14.00,2013-01-29 14:11:00,
2013-01-29 09:12:00,38.9,38.1,29.84,West,281,1.0,7.0,97,0.00,,---,0.25,VWS V14.00,2013-01-29 14:12:00,
2013-01-29 09:13:00,38.9,38.1,29.84,West,279,0.0,7.0,97,0.00,,---,0.25,VWS V14.00,2013-01-29 14:13:00,
2013-01-29 09:15:00,38.9,38.1,29.84,WSW,248,0.0,7.0,97,0.00,,---,0.25,VWS V14.00,2013-01-29 14:15:00,
2013-01-29 09:16:00,38.9,38.1,29.84,WSW,241,0.0,7.0,97,0.00,,---,0.25,VWS V14.00,2013-01-29 14:16:00,
2013-01-29 09:19:00,38.9,38.1,29.84,South,175,1.0,7.0,97,0.00,,---,0.25,VWS V14.00,2013-01-29 14:19:00,
2013-01-29 09:20:00,38.9,38.1,29.84,South,175,2.0,7.0,97,0.00,,---,0.25,VWS V14.00,2013-01-29 14:20:00,
2013-01-29 09:22:00,38.9,38.1,29.84,South,173,0.0,7.0,97,0.00,,---,0.25,VWS V14.00,2013-01-29 14:22:00,
2013-01-29 09:24:00,38.9,38.1,29.84,SSE,151,0.0,7.0,97,0.00,,---,0.25,VWS V14.00,2013-01-29 14:24:00,
2013-01-29 09:26:00,38.9,38.1,29.84,South,169,1.0,7.0,97,0.00,,---,0.25,VWS V14.00,2013-01-29 14:26:00,
2013-01-29 09:27:00,38.9,38.1,29.84,South,184,2.0,7.0,97,0.00,,---,0.25,VWS V14.00,2013-01-29 14:27:00,
2013-01-29 09:28:00,38.9,38.1,29.84,SSW,211,0.0,7.0,97,0.00,,---,0.25,VWS V14.00,2013-01-29 14:28:00,
2013-01-29 09:30:00,38.9,38.1,29.84,SSW,209,4.0,4.0,97,0.00,,---,0.25,VWS V14.00,2013-01-29 14:30:00,
2013-01-29 09:32:00,38.9,38.1,29.84,South,176,0.0,6.0,97,0.00,,---,0.25,VWS V14.00,2013-01-29 14:32:00,
2013-01-29 09:34:00,38.9,38.1,29.84,SSW,199,1.0,6.0,97,0.00,,---,0.25,VWS V14.00,2013-01-29 14:34:00,
2013-01-29 09:36:00,38.9,38.1,29.84,SSW,192,2.0,6.0,97,0.00,,---,0.25,VWS V14.00,2013-01-29 14:36:00,
2013-01-29 09:37:00,38.9,38.1,29.84,South,171,0.0,6.0,97,0.00,,---,0.25,VWS V14.00,2013-01-29 14:37:00,
2013-01-29 09:41:00,38.9,38.1,29.84,WSW,245,3.0,6.0,97,0.00,,---,0.25,VWS V14.00,2013-01-29 14:41:00,
2013-01-29 09:42:00,38.9,38.1,29.84,SW,226,0.0,7.0,97,0.00,,---,0.25,VWS V14.00,2013-01-29 14:42:00,
2013-01-29 09:43:00,38.9,38.1,29.84,WSW,240,8.0,8.0,97,0.00,,---,0.25,VWS V14.00,2013-01-29 14:43:00,
2013-01-29 09:44:00,38.9,38.1,29.84,WSW,242,1.0,8.0,97,0.00,,---,0.25,VWS V14.00,2013-01-29 14:44:00,
2013-01-29 09:46:00,38.9,38.1,29.84,SW,221,0.0,9.0,97,0.00,,---,0.25,VWS V14.00,2013-01-29 14:46:00,
2013-01-29 09:47:00,38.9,38.1,29.84,SW,223,0.0,9.0,97,0.00,,---,0.25,VWS V14.00,2013-01-29 14:47:00,
2013-01-29 09:49:00,38.9,38.1,29.83,WSW,238,3.0,9.0,97,0.00,,---,0.25,VWS V14.00,2013-01-29 14:49:00,
2013-01-29 09:51:00,38.9,38.1,29.84,SSW,201,3.0,11.0,97,0.00,,---,0.25,VWS V14.00,2013-01-29 14:51:00,
2013-01-29 09:52:00,38.9,38.1,29.84,SSW,196,0.0,11.0,97,0.00,,---,0.25,VWS V14.00,2013-01-29 14:52:00,
2013-01-29 09:55:00,38.9,38.1,29.83,South,184,0.0,11.0,97,0.00,,---,0.25,VWS V14.00,2013-01-29 14:55:00,
2013-01-29 09:57:00,38.9,38.1,29.84,SSW,210,1.0,11.0,97,0.00,,---,0.25,VWS V14.00,2013-01-29 14:57:00,
2013-01-29 09:58:00,38.9,38.1,29.84,SSW,198,4.0,4.0,97,0.00,,---,0.25,VWS V14.00,2013-01-29 14:58:00,
2013-01-29 10:00:00,38.9,38.1,29.84,SW,214,1.0,4.0,97,0.00,,---,0.25,VWS V14.00,2013-01-29 15:00:00,
2013-01-29 10:03:00,38.9,38.1,29.84,SW,234,0.0,9.0,97,0.00,,---,0.25,VWS V14.00,2013-01-29 15:03:00,
2013-01-29 10:05:00,38.9,38.1,29.84,WSW,238,2.0,9.0,97,0.00,,---,0.25,VWS V14.00,2013-01-29 15:05:00,
2013-01-29 10:06:00,38.9,38.1,29.85,SW,222,0.0,9.0,97,0.00,,---,0.25,VWS V14.00,2013-01-29 15:06:00,
2013-01-29 10:08:00,38.9,38.1,29.84,SSE,162,3.0,9.0,97,0.00,,---,0.25,VWS V14.00,2013-01-29 15:08:00,
2013-01-29 10:10:00,38.9,38.1,29.84,SW,227,0.0,9.0,97,0.00,,---,0.25,VWS V14.00,2013-01-29 15:10:00,
2013-01-29 10:12:00,38.9,38.1,29.84,SSW,209,1.0,9.0,97,0.00,,---,0.25,VWS V14.00,2013-01-29 15:12:00,
2013-01-29 10:16:00,38.9,38.1,29.85,SSW,205,0.0,9.0,97,0.00,,---,0.25,VWS V14.00,2013-01-29 15:16:00,
2013-01-29 10:17:00,38.9,38.1,29.85,SSW,192,0.0,9.0,97,0.00,,---,0.25,VWS V14.00,2013-01-29 15:17:00,
2013-01-29 10:18:00,38.9,38.1,29.85,SSW,207,3.0,9.0,97,0.00,,---,0.25,VWS V14.00,2013-01-29 15:18:00,
2013-01-29 10:19:00,38.9,38.1,29.85,WSW,237,7.0,9.0,97,0.00,,---,0.25,VWS V14.00,2013-01-29 15:19:00,
2013-01-29 10:22:00,38.9,38.1,29.84,SSW,210,3.0,9.0,97,0.00,,---,0.25,VWS V14.00,2013-01-29 15:22:00,
2013-01-29 10:23:00,38.9,38.1,29.85,South,176,2.0,9.0,97,0.00,,---,0.25,VWS V14.00,2013-01-29 15:23:00,
2013-01-29 10:24:00,38.9,38.1,29.84,SW,225,1.0,9.0,97,0.00,,---,0.25,VWS V14.00,2013-01-29 15:24:00,
2013-01-29 10:26:00,38.9,38.1,29.85,SSW,199,0.0,9.0,97,0.00,,---,0.25,VWS V14.00,2013-01-29 15:26:00,
2013-01-29 10:27:00,38.9,38.1,29.85,SSE,153,1.0,9.0,97,0.00,,---,0.25,VWS V14.00,2013-01-29 15:27:00,
2013-01-29 10:28:00,38.9,38.1,29.85,South,182,4.0,9.0,97,0.00,,---,0.25,VWS V14.00,2013-01-29 15:28:00,
2013-01-29 10:30:00,38.9,38.1,29.84,SSE,156,0.0,4.0,97,0.00,,---,0.25,VWS V14.00,2013-01-29 15:30:00,
2013-01-29 10:31:00,38.9,38.1,29.85,SSE,157,2.0,6.0,97,0.00,,---,0.25,VWS V14.00,2013-01-29 15:31:00,
2013-01-29 10:33:00,38.9,38.1,29.84,South,174,0.0,6.0,97,0.00,,---,0.25,VWS V14.00,2013-01-29 15:33:00,
2013-01-29 10:34:00,38.9,38.1,29.84,South,186,1.0,6.0,97,0.00,,---,0.25,VWS V14.00,2013-01-29 15:34:00,
2013-01-29 10:35:00,38.9,38.1,29.85,South,180,4.0,8.0,97,0.00,,---,0.25,VWS V14.00,2013-01-29 15:35:00,
2013-01-29 10:37:00,38.9,38.1,29.84,SSW,196,8.0,8.0,97,0.00,,---,0.25,VWS V14.00,2013-01-29 15:37:00,
2013-01-29 10:38:00,38.9,38.1,29.84,South,173,2.0,11.0,97,0.00,,---,0.25,VWS V14.00,2013-01-29 15:38:00,
2013-01-29 10:39:00,38.9,38.1,29.84,SSE,159,0.0,11.0,97,0.00,,---,0.25,VWS V14.00,2013-01-29 15:39:00,
2013-01-29 10:41:00,38.9,38.1,29.84,South,180,0.0,11.0,97,0.00,,---,0.25,VWS V14.00,2013-01-29 15:41:00,
2013-01-29 10:44:00,38.9,38.1,29.84,South,186,0.0,11.0,97,0.00,,---,0.25,VWS V14.00,2013-01-29 15:44:00,
2013-01-29 10:45:00,38.9,38.1,29.84,SSW,208,2.0,11.0,97,0.00,,---,0.25,VWS V14.00,2013-01-29 15:45:00,
2013-01-29 10:46:00,38.9,38.1,29.84,South,188,0.0,11.0,97,0.00,,---,0.25,VWS V14.00,2013-01-29 15:46:00,
2013-01-29 10:49:00,38.9,38.1,29.84,South,181,4.0,11.0,97,0.00,,---,0.25,VWS V14.00,2013-01-29 15:49:00,
2013-01-29 10:50:00,38.9,38.1,29.84,South,187,0.0,11.0,97,0.00,,---,0.25,VWS V14.00,2013-01-29 15:50:00,
2013-01-29 10:52:00,38.9,38.1,29.84,SSW,197,3.0,11.0,97,0.00,,---,0.25,VWS V14.00,2013-01-29 15:52:00,
2013-01-29 10:55:00,38.9,38.1,29.84,SSW,196,2.0,11.0,97,0.00,,---,0.25,VWS V14.00,2013-01-29 15:55:00,
2013-01-29 10:56:00,38.9,38.1,29.84,South,169,0.0,11.0,97,0.00,,---,0.25,VWS V14.00,2013-01-29 15:56:00,
2013-01-29 10:57:00,38.9,38.1,29.84,SW,220,0.0,11.0,97,0.00,,---,0.25,VWS V14.00,2013-01-29 15:57:00,
2013-01-29 11:02:00,38.9,38.1,29.84,South,183,0.0,7.0,97,0.00,,---,0.25,VWS V14.00,2013-01-29 16:02:00,
2013-01-29 11:03:00,38.9,38.1,29.84,SSW,198,0.0,7.0,97,0.00,,---,0.25,VWS V14.00,2013-01-29 16:03:00,
2013-01-29 11:04:00,38.9,38.1,29.84,WSW,244,7.0,7.0,97,0.00,,---,0.25,VWS V14.00,2013-01-29 16:04:00,
2013-01-29 11:07:00,38.9,38.1,29.83,South,187,0.0,7.0,97,0.00,,---,0.25,VWS V14.00,2013-01-29 16:07:00,
2013-01-29 11:08:00,38.9,38.1,29.83,South,187,0.0,7.0,97,0.00,,---,0.25,VWS V14.00,2013-01-29 16:08:00,
2013-01-29 11:09:00,38.9,38.1,29.83,SSW,204,2.0,7.0,97,0.00,,---,0.25,VWS V14.00,2013-01-29 16:09:00,
2013-01-29 11:10:00,38.9,38.1,29.83,SSW,196,4.0,7.0,97,0.00,,---,0.25,VWS V14.00,2013-01-29 16:10:00,
2013-01-29 11:14:00,38.9,38.1,29.83,SW,229,2.0,7.0,97,0.00,,---,0.25,VWS V14.00,2013-01-29 16:14:00,
2013-01-29 11:16:00,38.9,38.1,29.83,SW,228,0.0,7.0,97,0.00,,---,0.25,VWS V14.00,2013-01-29 16:16:00,
2013-01-29 11:17:00,38.9,38.1,29.83,SW,227,1.0,7.0,97,0.00,,---,0.25,VWS V14.00,2013-01-29 16:17:00,
2013-01-29 11:21:00,38.9,38.1,29.83,South,175,4.0,10.0,97,0.00,,---,0.25,VWS V14.00,2013-01-29 16:21:00,
2013-01-29 11:22:00,38.9,38.1,29.83,WSW,245,0.0,10.0,97,0.00,,---,0.25,VWS V14.00,2013-01-29 16:22:00,
2013-01-29 11:23:00,38.9,38.1,29.83,WSW,243,0.0,10.0,97,0.00,,---,0.25,VWS V14.00,2013-01-29 16:23:00,
2013-01-29 11:27:00,38.9,38.1,29.83,SW,224,4.0,10.0,97,0.00,,---,0.25,VWS V14.00,2013-01-29 16:27:00,
2013-01-29 11:28:00,38.9,38.1,29.83,SSW,211,0.0,10.0,97,0.00,,---,0.25,VWS V14.00,2013-01-29 16:28:00,
2013-01-29 11:33:00,38.9,38.1,29.83,SW,218,0.0,7.0,97,0.00,,---,0.25,VWS V14.00,2013-01-29 16:33:00,
2013-01-29 11:34:00,38.9,38.1,29.83,SW,217,2.0,7.0,97,0.00,,---,0.25,VWS V14.00,2013-01-29 16:34:00,
2013-01-29 11:37:00,38.9,38.1,29.83,SW,233,1.0,10.0,97,0.00,,---,0.25,VWS V14.00,2013-01-29 16:37:00,
2013-01-29 11:39:00,38.9,38.1,29.83,West,269,6.0,10.0,97,0.00,,---,0.25,VWS V14.00,2013-01-29 16:39:00,
2013-01-29 11:40:00,38.9,38.1,29.83,SW,229,2.0,10.0,97,0.00,,---,0.25,VWS V14.00,2013-01-29 16:40:00,
2013-01-29 11:44:00,38.9,38.1,29.83,South,180,0.0,10.0,97,0.00,,---,0.25,VWS V14.00,2013-01-29 16:44:00,
2013-01-29 11:45:00,38.9,38.1,29.83,West,276,3.0,10.0,97,0.00,,---,0.25,VWS V14.00,2013-01-29 16:45:00,
2013-01-29 11:46:00,38.9,38.1,29.83,SSE,156,0.0,10.0,97,0.00,,---,0.25,VWS V14.00,2013-01-29 16:46:00,
2013-01-29 11:50:00,38.9,38.1,29.83,South,174,1.0,10.0,97,0.00,,---,0.25,VWS V14.00,2013-01-29 16:50:00,
2013-01-29 11:52:00,38.9,38.1,29.83,SW,236,2.0,10.0,97,0.00,,---,0.25,VWS V14.00,2013-01-29 16:52:00,
2013-01-29 11:53:00,38.9,38.1,29.83,South,178,2.0,10.0,97,0.00,,---,0.25,VWS V14.00,2013-01-29 16:53:00,
2013-01-29 11:57:00,38.9,38.1,29.83,SSE,161,1.0,10.0,97,0.00,,---,0.25,VWS V14.00,2013-01-29 16:57:00,
2013-01-29 11:58:00,38.9,38.1,29.82,SSW,198,2.0,10.0,97,0.00,,---,0.25,VWS V14.00,2013-01-29 16:58:00,
2013-01-29 11:59:00,38.9,38.1,29.82,SSE,156,2.0,7.0,97,0.00,,---,0.25,VWS V14.00,2013-01-29 16:59:00,
2013-01-29 12:03:00,38.9,38.1,29.82,WSW,237,1.0,7.0,97,0.00,,---,0.25,VWS V14.00,2013-01-29 17:03:00,
2013-01-29 12:04:00,38.9,38.1,29.82,SSW,207,1.0,7.0,97,0.00,,---,0.25,VWS V14.00,2013-01-29 17:04:00,
2013-01-29 12:05:00,38.9,38.1,29.82,South,181,0.0,7.0,97,0.00,,---,0.25,VWS V14.00,2013-01-29 17:05:00,
2013-01-29 12:06:00,38.9,38.1,29.82,WSW,244,0.0,7.0,97,0.00,,---,0.25,VWS V14.00,2013-01-29 17:06:00,
2013-01-29 12:10:00,38.9,38.1,29.82,South,171,0.0,7.0,97,0.00,,---,0.25,VWS V14.00,2013-01-29 17:10:00,
2013-01-29 12:11:00,38.9,38.1,29.81,SSW,212,1.0,7.0,97,0.00,,---,0.25,VWS V14.00,2013-01-29 17:11:00,
2013-01-29 12:12:00,38.9,38.1,29.82,SW,234,0.0,7.0,97,0.00,,---,0.25,VWS V14.00,2013-01-29 17:12:00,
2013-01-29 12:14:00,38.9,38.1,29.82,SSW,200,3.0,11.0,97,0.00,,---,0.25,VWS V14.00,2013-01-29 17:14:00,
2013-01-29 12:17:00,38.9,38.1,29.82,SW,234,0.0,11.0,97,0.00,,---,0.25,VWS V14.00,2013-01-29 17:17:00,
2013-01-29 12:19:00,38.9,38.1,29.82,SW,234,1.0,11.0,97,0.00,,---,0.25,VWS V14.00,2013-01-29 17:19:00,
2013-01-29 12:20:00,38.9,38.1,29.81,SW,225,0.0,11.0,97,0.00,,---,0.25,VWS V14.00,2013-01-29 17:20:00,
2013-01-29 12:22:00,38.9,38.1,29.81,SSE,166,1.0,11.0,97,0.00,,---,0.25,VWS V14.00,2013-01-29 17:22:00,
2013-01-29 12:23:00,38.9,38.1,29.81,SE,136,2.0,11.0,97,0.00,,---,0.25,VWS V14.00,2013-01-29 17:23:00,
2013-01-29 12:24:00,38.9,38.1,29.81,SW,227,1.0,11.0,97,0.00,,---,0.25,VWS V14.00,2013-01-29 17:24:00,
2013-01-29 12:26:00,38.9,38.1,29.81,WNW,288,0.0,11.0,97,0.00,,---,0.25,VWS V14.00,2013-01-29 17:26:00,
2013-01-29 12:27:00,38.9,38.1,29.81,WSW,244,0.0,11.0,97,0.00,,---,0.25,VWS V14.00,2013-01-29 17:27:00,
2013-01-29 12:29:00,38.9,38.1,29.80,SW,219,1.0,5.0,97,0.00,,---,0.25,VWS V14.00,2013-01-29 17:29:00,
2013-01-29 12:31:00,38.9,38.1,29.81,SW,215,0.0,5.0,97,0.00,,---,0.25,VWS V14.00,2013-01-29 17:31:00,
2013-01-29 12:32:00,38.9,38.1,29.80,SW,220,5.0,5.0,97,0.00,,---,0.25,VWS V14.00,2013-01-29 17:32:00,
2013-01-29 12:35:00,38.9,38.1,29.81,South,186,0.0,6.0,97,0.00,,---,0.25,VWS V14.00,2013-01-29 17:35:00,
2013-01-29 12:37:00,38.9,38.1,29.81,South,190,2.0,6.0,97,0.00,,---,0.25,VWS V14.00,2013-01-29 17:37:00,
2013-01-29 12:38:00,38.9,38.1,29.81,WSW,237,4.0,6.0,97,0.00,,---,0.25,VWS V14.00,2013-01-29 17:38:00,
2013-01-29 12:40:00,38.9,38.1,29.81,West,266,3.0,7.0,97,0.00,,---,0.25,VWS V14.00,2013-01-29 17:40:00,
2013-01-29 12:43:00,38.9,38.1,29.80,SW,235,2.0,12.0,97,0.00,,---,0.25,VWS V14.00,2013-01-29 17:43:00,
2013-01-29 12:44:00,38.9,38.1,29.80,SW,225,0.0,12.0,97,0.00,,---,0.25,VWS V14.00,2013-01-29 17:44:00,
2013-01-29 12:45:00,38.9,38.1,29.80,South,177,0.0,12.0,97,0.00,,---,0.25,VWS V14.00,2013-01-29 17:45:00,
2013-01-29 12:50:00,38.9,38.1,29.80,SSE,159,0.0,12.0,97,0.00,,---,0.25,VWS V14.00,2013-01-29 17:50:00,
2013-01-29 12:51:00,38.9,38.1,29.80,SSE,163,0.0,12.0,97,0.00,,---,0.25,VWS V14.00,2013-01-29 17:51:00,
2013-01-29 12:52:00,38.9,38.1,29.80,WSW,248,4.0,12.0,97,0.00,,---,0.25,VWS V14.00,2013-01-29 17:52:00,
2013-01-29 12:54:00,38.9,38.1,29.80,SSE,168,0.0,12.0,97,0.00,,---,0.25,VWS V14.00,2013-01-29 17:54:00,
2013-01-29 12:56:00,38.9,38.1,29.80,West,259,3.0,12.0,97,0.00,,---,0.25,VWS V14.00,2013-01-29 17:56:00,
2013-01-29 12:57:00,38.9,38.1,29.80,South,178,2.0,12.0,97,0.00,,---,0.25,VWS V14.00,2013-01-29 17:57:00,
2013-01-29 12:59:00,38.9,38.1,29.79,SW,221,0.0,4.0,97,0.00,,---,0.25,VWS V14.00,2013-01-29 17:59:00,
2013-01-29 13:01:00,38.9,38.1,29.79,SSW,205,1.0,6.0,97,0.00,,---,0.25,VWS V14.00,2013-01-29 18:01:00,
2013-01-29 13:02:00,38.9,38.1,29.79,SW,219,2.0,6.0,97,0.00,,---,0.25,VWS V14.00,2013-01-29 18:02:00,
2013-01-29 13:03:00,38.9,38.1,29.79,SW,219,0.0,6.0,97,0.00,,---,0.25,VWS V14.00,2013-01-29 18:03:00,
2013-01-29 13:04:00,38.9,38.1,29.79,SSW,212,1.0,6.0,97,0.00,,---,0.25,VWS V14.00,2013-01-29 18:04:00,
2013-01-29 13:06:00,38.9,38.1,29.80,SW,235,3.0,6.0,97,0.00,,---,0.25,VWS V14.00,2013-01-29 18:06:00,
2013-01-29 13:08:00,38.9,38.1,29.80,SW,218,1.0,6.0,97,0.00,,---,0.25,VWS V14.00,2013-01-29 18:08:00,
2013-01-29 13:09:00,38.9,38.1,29.80,SSE,166,1.0,6.0,97,0.00,,---,0.25,VWS V14.00,2013-01-29 18:09:00,
2013-01-29 13:12:00,38.9,38.1,29.79,SSW,205,0.0,7.0,97,0.00,,---,0.25,VWS V14.00,2013-01-29 18:12:00,
2013-01-29 13:13:00,38.9,38.1,29.79,West,277,4.0,9.0,97,0.00,,---,0.25,VWS V14.00,2013-01-29 18:13:00,
2013-01-29 13:14:00,38.9,38.1,29.78,South,179,0.0,9.0,97,0.00,,---,0.25,VWS V14.00,2013-01-29 18:14:00,
2013-01-29 13:15:00,38.9,38.1,29.78,SW,215,0.0,9.0,97,0.00,,---,0.25,VWS V14.00,2013-01-29 18:15:00,
2013-01-29 13:19:00,38.9,38.1,29.78,SW,222,3.0,9.0,97,0.00,,---,0.25,VWS V14.00,2013-01-29 18:19:00,
2013-01-29 13:20:00,38.9,38.1,29.78,West,261,0.0,9.0,97,0.00,,---,0.25,VWS V14.00,2013-01-29 18:20:00,
2013-01-29 13:22:00,38.9,38.1,29.79,SW,234,0.0,9.0,97,0.00,,---,0.25,VWS V14.00,2013-01-29 18:22:00,
2013-01-29 13:24:00,38.9,38.1,29.79,WSW,256,7.0,11.0,97,0.00,,---,0.25,VWS V14.00,2013-01-29 18:24:00,
2013-01-29 13:25:00,38.9,38.1,29.79,SSE,157,2.0,11.0,97,0.00,,---,0.25,VWS V14.00,2013-01-29 18:25:00,
2013-01-29 13:27:00,38.9,38.1,29.78,South,178,0.0,14.0,97,0.00,,---,0.25,VWS V14.00,2013-01-29 18:27:00,
2013-01-29 13:29:00,38.9,38.1,29.78,SW,235,0.0,2.0,97,0.00,,---,0.25,VWS V14.00,2013-01-29 18:29:00,
2013-01-29 13:30:00,38.9,38.1,29.78,South,190,0.0,2.0,97,0.00,,---,0.25,VWS V14.00,2013-01-29 18:30:00,
2013-01-29 13:33:00,38.9,38.1,29.78,SSW,211,0.0,6.0,97,0.00,,---,0.25,VWS V14.00,2013-01-29 18:33:00,
2013-01-29 13:35:00,38.9,38.1,29.77,SSE,151,0.0,15.0,97,0.00,,---,0.25,VWS V14.00,2013-01-29 18:35:00,
2013-01-29 13:38:00,38.9,38.1,29.77,SSW,204,0.0,15.0,97,0.00,,---,0.25,VWS V14.00,2013-01-29 18:38:00,
2013-01-29 13:40:00,38.9,38.1,29.77,SSW,204,0.0,15.0,97,0.00,,---,0.25,VWS V14.00,2013-01-29 18:40:00,
2013-01-29 13:41:00,38.9,38.1,29.77,SSW,194,0.0,15.0,97,0.00,,---,0.25,VWS V14.00,2013-01-29 18:41:00,
2013-01-29 13:43:00,38.9,38.1,29.77,SSW,209,0.0,15.0,97,0.00,,---,0.25,VWS V14.00,2013-01-29 18:43:00,
2013-01-29 13:45:00,38.9,38.1,29.77,South,169,1.0,15.0,97,0.00,,---,0.25,VWS V14.00,2013-01-29 18:45:00,
2013-01-29 13:47:00,38.9,38.1,29.77,South,182,0.0,15.0,97,0.00,,---,0.25,VWS V14.00,2013-01-29 18:47:00,
2013-01-29 13:49:00,38.9,38.1,29.77,South,176,0.0,15.0,97,0.00,,---,0.25,VWS V14.00,2013-01-29 18:49:00,
2013-01-29 13:51:00,38.9,38.1,29.77,SSE,162,0.0,15.0,97,0.00,,---,0.25,VWS V14.00,2013-01-29 18:51:00,
2013-01-29 13:53:00,38.9,38.1,29.77,SSW,205,0.0,15.0,97,0.00,,---,0.25,VWS V14.00,2013-01-29 18:53:00,
2013-01-29 13:54:00,38.9,38.1,29.76,SW,217,0.0,15.0,97,0.00,,---,0.25,VWS V14.00,2013-01-29 18:54:00,
2013-01-29 13:55:00,38.9,38.1,29.76,SSW,203,0.0,15.0,97,0.00,,---,0.25,VWS V14.00,2013-01-29 18:55:00,
2013-01-29 13:58:00,38.9,38.1,29.76,SW,223,1.0,15.0,97,0.00,,---,0.25,VWS V14.00,2013-01-29 18:58:00,
2013-01-29 14:00:00,38.9,38.1,29.93,South,179,2.0,6.0,97,0.00,,---,0.25,VWS V14.00,2013-01-29 19:00:00,
2013-01-29 14:01:00,38.9,38.1,29.94,West,261,4.0,10.0,97,0.00,,---,0.25,VWS V14.00,2013-01-29 19:01:00,
2013-01-29 14:04:00,38.9,38.1,29.94,South,178,0.0,10.0,97,0.00,,---,0.25,VWS V14.00,2013-01-29 19:04:00,
2013-01-29 14:05:00,38.9,38.1,29.94,South,175,0.0,10.0,97,0.00,,---,0.25,VWS V14.00,2013-01-29 19:05:00,
2013-01-29 14:06:00,38.9,38.1,29.93,South,169,1.0,10.0,97,0.00,,---,0.25,VWS V14.00,2013-01-29 19:06:00,
2013-01-29 14:07:00,38.9,38.1,29.93,South,182,0.0,10.0,97,0.00,,---,0.25,VWS V14.00,2013-01-29 19:07:00,
2013-01-29 14:10:00,38.9,38.1,29.93,SSW,202,0.0,10.0,97,0.00,,---,0.25,VWS V14.00,2013-01-29 19:10:00,
2013-01-29 14:11:00,38.9,38.1,29.93,South,187,1.0,10.0,97,0.00,,---,0.25,VWS V14.00,2013-01-29 19:11:00,
2013-01-29 14:14:00,38.9,38.1,29.93,South,190,0.0,10.0,97,0.00,,---,0.25,VWS V14.00,2013-01-29 19:14:00,
2013-01-29 14:16:00,38.9,38.1,29.93,SSE,159,0.0,10.0,97,0.00,,---,0.25,VWS V14.00,2013-01-29 19:16:00,
2013-01-29 14:17:00,38.9,38.1,29.93,South,182,0.0,10.0,97,0.00,,---,0.25,VWS V14.00,2013-01-29 19:17:00,
2013-01-29 14:20:00,38.9,38.1,29.93,South,172,1.0,11.0,97,0.00,,---,0.25,VWS V14.00,2013-01-29 19:20:00,
2013-01-29 14:21:00,38.9,38.1,29.92,SW,227,0.0,11.0,97,0.01,,---,0.26,VWS V14.00,2013-01-29 19:21:00,
2013-01-29 14:22:00,38.9,38.1,29.92,South,178,1.0,11.0,97,0.01,,---,0.26,VWS V14.00,2013-01-29 19:22:00,
2013-01-29 14:23:00,38.9,38.1,29.92,South,179,0.0,11.0,97,0.01,,---,0.26,VWS V14.00,2013-01-29 19:23:00,
2013-01-29 14:27:00,38.9,38.1,29.92,SSW,202,2.0,11.0,97,0.02,,---,0.27,VWS V14.00,2013-01-29 19:27:00,
2013-01-29 14:28:00,38.9,38.1,29.92,South,175,0.0,11.0,97,0.02,,---,0.27,VWS V14.00,2013-01-29 19:28:00,
2013-01-29 14:29:00,38.9,38.1,29.93,SSE,162,0.0,1.0,97,0.03,,---,0.28,VWS V14.00,2013-01-29 19:29:00,
2013-01-29 14:32:00,38.9,38.1,29.93,WSW,249,0.0,2.0,97,0.04,,---,0.29,VWS V14.00,2013-01-29 19:32:00,
2013-01-29 14:34:00,38.9,38.1,29.93,SW,229,1.0,2.0,97,0.04,,---,0.29,VWS V14.00,2013-01-29 19:34:00,
2013-01-29 14:35:00,38.9,38.1,29.93,South,181,0.0,2.0,97,0.04,,---,0.29,VWS V14.00,2013-01-29 19:35:00,
2013-01-29 14:39:00,38.9,38.1,29.92,South,184,0.0,3.0,97,0.04,,---,0.29,VWS V14.00,2013-01-29 19:39:00,
2013-01-29 14:40:00,38.9,38.1,29.92,South,175,0.0,3.0,97,0.04,,---,0.29,VWS V14.00,2013-01-29 19:40:00,
2013-01-29 14:42:00,38.9,38.1,29.91,South,186,0.0,3.0,97,0.04,,---,0.29,VWS V14.00,2013-01-29 19:42:00,
2013-01-29 14:44:00,38.9,38.1,29.92,SSW,192,2.0,9.0,97,0.04,,---,0.29,VWS V14.00,2013-01-29 19:44:00,
2013-01-29 14:45:00,38.9,38.1,29.92,SSW,199,2.0,9.0,97,0.04,,---,0.29,VWS V14.00,2013-01-29 19:45:00,
2013-01-29 14:47:00,38.9,38.1,29.91,South,182,0.0,9.0,97,0.04,,---,0.29,VWS V14.00,2013-01-29 19:47:00,
2013-01-29 14:50:00,38.9,38.1,29.91,South,184,0.0,9.0,97,0.04,,---,0.29,VWS V14.00,2013-01-29 19:50:00,
2013-01-29 14:51:00,38.9,38.1,29.91,SSW,192,1.0,9.0,97,0.04,,---,0.29,VWS V14.00,2013-01-29 19:51:00,
2013-01-29 14:55:00,38.9,38.1,29.90,SSE,167,2.0,9.0,97,0.04,,---,0.29,VWS V14.00,2013-01-29 19:55:00,
2013-01-29 14:56:00,38.9,38.1,29.90,SSE,158,0.0,9.0,97,0.04,,---,0.29,VWS V14.00,2013-01-29 19:56:00,
2013-01-29 14:57:00,38.9,38.1,29.90,South,188,1.0,9.0,97,0.04,,---,0.29,VWS V14.00,2013-01-29 19:57:00,
2013-01-29 14:58:00,38.9,38.1,29.90,SW,222,0.0,3.0,97,0.04,,---,0.29,VWS V14.00,2013-01-29 19:58:00,
2013-01-29 15:02:00,38.9,38.1,29.90,South,173,1.0,3.0,97,0.04,,---,0.29,VWS V14.00,2013-01-29 20:02:00,
2013-01-29 15:03:00,38.9,38.1,29.90,South,186,0.0,3.0,97,0.04,,---,0.29,VWS V14.00,2013-01-29 20:03:00,
2013-01-29 15:05:00,38.9,38.1,29.90,SSE,165,2.0,3.0,97,0.04,,---,0.29,VWS V14.00,2013-01-29 20:05:00,
2013-01-29 15:07:00,38.9,38.1,29.90,South,169,2.0,3.0,97,0.04,,---,0.29,VWS V14.00,2013-01-29 20:07:00,
2013-01-29 15:08:00,38.9,38.1,29.90,South,173,1.0,3.0,97,0.04,,---,0.29,VWS V14.00,2013-01-29 20:08:00,
2013-01-29 15:10:00,38.9,38.1,29.90,South,188,1.0,3.0,97,0.04,,---,0.29,VWS V14.00,2013-01-29 20:10:00,
2013-01-29 15:13:00,38.9,38.1,29.90,South,178,1.0,3.0,97,0.04,,---,0.29,VWS V14.00,2013-01-29 20:13:00,
2013-01-29 15:14:00,38.9,38.1,29.90,South,179,0.0,3.0,97,0.04,,---,0.29,VWS V14.00,2013-01-29 20:14:00,
2013-01-29 15:18:00,38.9,38.1,29.90,SSW,195,1.0,3.0,97,0.04,,---,0.29,VWS V14.00,2013-01-29 20:18:00,
2013-01-29 15:20:00,38.9,38.1,29.90,South,186,0.0,3.0,97,0.04,,---,0.29,VWS V14.00,2013-01-29 20:20:00,
2013-01-29 15:22:00,38.9,38.1,29.90,South,190,1.0,3.0,97,0.04,,---,0.29,VWS V14.00,2013-01-29 20:22:00,
2013-01-29 15:23:00,38.9,38.1,29.90,South,170,1.0,3.0,97,0.04,,---,0.29,VWS V14.00,2013-01-29 20:23:00,
2013-01-29 15:26:00,38.9,38.1,29.90,SSE,159,0.0,9.0,97,0.04,,---,0.29,VWS V14.00,2013-01-29 20:26:00,
2013-01-29 15:28:00,38.9,38.1,29.90,South,172,0.0,9.0,97,0.04,,---,0.29,VWS V14.00,2013-01-29 20:28:00,
2013-01-29 15:29:00,38.9,38.1,29.90,WSW,245,1.0,2.0,97,0.02,,---,0.29,VWS V14.00,2013-01-29 20:29:00,
2013-01-29 15:32:00,38.9,38.1,29.90,SW,217,0.0,2.0,97,0.02,,---,0.29,VWS V14.00,2013-01-29 20:32:00,
2013-01-29 15:34:00,38.9,38.1,29.90,SSE,159,0.0,2.0,97,0.02,,---,0.29,VWS V14.00,2013-01-29 20:34:00,
2013-01-29 15:37:00,38.9,38.1,29.90,SSW,194,1.0,4.0,97,0.02,,---,0.29,VWS V14.00,2013-01-29 20:37:00,
2013-01-29 15:38:00,38.9,38.1,29.90,South,175,0.0,4.0,97,0.02,,---,0.29,VWS V14.00,2013-01-29 20:38:00,
2013-01-29 15:40:00,38.9,38.1,29.90,South,191,0.0,4.0,97,0.02,,---,0.29,VWS V14.00,2013-01-29 20:40:00,
2013-01-29 15:41:00,38.9,38.1,29.90,South,184,0.0,4.0,97,0.02,,---,0.29,VWS V14.00,2013-01-29 20:41:00,
2013-01-29 15:43:00,38.9,38.1,29.90,South,171,0.0,4.0,97,0.02,,---,0.29,VWS V14.00,2013-01-29 20:43:00,
2013-01-29 15:44:00,38.9,38.1,29.90,South,187,0.0,9.0,97,0.02,,---,0.29,VWS V14.00,2013-01-29 20:44:00,
2013-01-29 15:47:00,38.9,38.1,29.90,SSE,165,0.0,9.0,97,0.02,,---,0.29,VWS V14.00,2013-01-29 20:47:00,
2013-01-29 15:49:00,38.9,38.1,29.90,South,182,1.0,9.0,97,0.02,,---,0.29,VWS V14.00,2013-01-29 20:49:00,
2013-01-29 15:50:00,38.9,38.1,29.90,South,175,0.0,9.0,97,0.02,,---,0.29,VWS V14.00,2013-01-29 20:50:00,
2013-01-29 15:53:00,38.9,38.1,29.90,SW,231,0.0,9.0,97,0.02,,---,0.29,VWS V14.00,2013-01-29 20:53:00,
2013-01-29 15:54:00,38.9,38.1,29.90,SSW,205,0.0,9.0,97,0.02,,---,0.29,VWS V14.00,2013-01-29 20:54:00,
2013-01-29 15:56:00,38.9,38.1,29.90,SSW,194,1.0,9.0,97,0.02,,---,0.29,VWS V14.00,2013-01-29 20:56:00,
2013-01-29 15:58:00,38.9,38.1,29.90,SSW,200,0.0,9.0,97,0.02,,---,0.29,VWS V14.00,2013-01-29 20:58:00,
2013-01-29 15:59:00,38.9,38.1,29.90,South,175,1.0,1.0,97,0.00,,---,0.29,VWS V14.00,2013-01-29 20:59:00,
2013-01-29 16:00:00,38.9,38.1,29.90,SSW,207,1.0,4.0,97,0.00,,---,0.29,VWS V14.00,2013-01-29 21:00:00,
2013-01-29 16:01:00,38.9,38.1,29.90,South,186,0.0,4.0,97,0.00,,---,0.29,VWS V14.00,2013-01-29 21:01:00,
2013-01-29 16:03:00,38.9,38.1,29.90,SSW,198,2.0,4.0,97,0.00,,---,0.29,VWS V14.00,2013-01-29 21:03:00,
2013-01-29 16:05:00,38.9,38.1,29.90,South,188,0.0,4.0,97,0.00,,---,0.29,VWS V14.00,2013-01-29 21:05:00,
2013-01-29 16:07:00,38.9,38.1,29.90,South,180,0.0,4.0,97,0.00,,---,0.29,VWS V14.00,2013-01-29 21:07:00,
2013-01-29 16:09:00,38.9,38.1,29.89,SSW,212,0.0,4.0,97,0.00,,---,0.29,VWS V14.00,2013-01-29 21:09:00,
2013-01-29 16:12:00,38.9,38.1,29.89,SW,216,1.0,4.0,97,0.00,,---,0.29,VWS V14.00,2013-01-29 21:12:00,
2013-01-29 16:13:00,38.9,38.1,29.89,SSW,192,0.0,4.0,97,0.00,,---,0.29,VWS V14.00,2013-01-29 21:13:00,
2013-01-29 16:14:00,38.9,38.1,29.89,South,186,0.0,4.0,97,0.00,,---,0.29,VWS V14.00,2013-01-29 21:14:00,
2013-01-29 16:17:00,38.9,38.1,29.89,South,169,0.0,4.0,97,0.00,,---,0.29,VWS V14.00,2013-01-29 21:17:00,
2013-01-29 16:18:00,38.9,38.1,29.89,South,184,1.0,4.0,97,0.00,,---,0.29,VWS V14.00,2013-01-29 21:18:00,
2013-01-29 16:19:00,38.9,38.1,29.89,SSE,161,1.0,4.0,97,0.00,,---,0.29,VWS V14.00,2013-01-29 21:19:00,
2013-01-29 16:21:00,38.9,38.1,29.89,South,170,9.0,9.0,97,0.00,,---,0.29,VWS V14.00,2013-01-29 21:21:00,
2013-01-29 16:24:00,38.9,38.1,29.89,South,181,0.0,9.0,97,0.00,,---,0.29,VWS V14.00,2013-01-29 21:24:00,
2013-01-29 16:27:00,38.9,38.1,29.89,SSE,153,0.0,9.0,97,0.00,,---,0.29,VWS V14.00,2013-01-29 21:27:00,
2013-01-29 16:28:00,38.9,38.1,29.89,SW,214,2.0,9.0,97,0.00,,---,0.29,VWS V14.00,2013-01-29 21:28:00,
2013-01-29 16:29:00,38.9,38.1,29.89,SE,139,0.0,3.0,97,0.00,,---,0.29,VWS V14.00,2013-01-29 21:29:00,
2013-01-29 16:32:00,38.9,38.1,29.89,SSW,194,0.0,3.0,97,0.00,,---,0.29,VWS V14.00,2013-01-29 21:32:00,
2013-01-29 16:34:00,38.9,38.1,29.89,South,177,1.0,3.0,97,0.00,,---,0.29,VWS V14.00,2013-01-29 21:34:00,
2013-01-29 16:35:00,38.9,38.1,29.89,SSE,155,0.0,3.0,97,0.00,,---,0.29,VWS V14.00,2013-01-29 21:35:00,
2013-01-29 16:38:00,38.9,38.1,29.89,South,190,1.0,6.0,97,0.00,,---,0.29,VWS V14.00,2013-01-29 21:38:00,
2013-01-29 16:40:00,38.9,38.1,29.88,South,181,0.0,6.0,97,0.00,,---,0.29,VWS V14.00,2013-01-29 21:40:00,
2013-01-29 16:42:00,38.9,38.1,29.89,South,169,0.0,6.0,97,0.00,,---,0.29,VWS V14.00,2013-01-29 21:42:00,
2013-01-29 16:43:00,38.9,38.1,29.89,SSW,207,1.0,6.0,97,0.00,,---,0.29,VWS V14.00,2013-01-29 21:43:00,
2013-01-29 16:45:00,38.9,38.1,29.88,SSW,195,4.0,6.0,97,0.00,,---,0.29,VWS V14.00,2013-01-29 21:45:00,
2013-01-29 16:47:00,38.9,38.1,29.88,SSE,166,0.0,6.0,97,0.00,,---,0.29,VWS V14.00,2013-01-29 21:47:00,
2013-01-29 16:48:00,38.9,38.1,29.88,South,190,1.0,6.0,97,0.00,,---,0.29,VWS V14.00,2013-01-29 21:48:00,
2013-01-29 16:50:00,38.9,38.1,29.89,South,178,1.0,9.0,97,0.00,,---,0.29,VWS V14.00,2013-01-29 21:50:00,
2013-01-29 16:52:00,38.9,38.1,29.89,SSW,205,0.0,9.0,97,0.00,,---,0.29,VWS V14.00,2013-01-29 21:52:00,
2013-01-29 16:54:00,38.9,38.1,29.89,South,185,2.0,9.0,97,0.00,,---,0.29,VWS V14.00,2013-01-29 21:54:00,
2013-01-29 16:56:00,38.9,38.1,29.89,SSW,213,0.0,9.0,97,0.00,,---,0.29,VWS V14.00,2013-01-29 21:56:00,
2013-01-29 16:58:00,38.9,38.1,29.89,South,175,0.0,9.0,97,0.00,,---,0.29,VWS V14.00,2013-01-29 21:58:00,
2013-01-29 17:00:00,38.9,38.1,29.88,South,178,1.0,4.0,97,0.00,,---,0.29,VWS V14.00,2013-01-29 22:00:00,
2013-01-29 17:03:00,38.9,38.1,29.88,South,173,2.0,5.0,97,0.00,,---,0.29,VWS V14.00,2013-01-29 22:03:00,
2013-01-29 17:05:00,38.9,38.1,29.88,SSW,201,3.0,5.0,97,0.00,,---,0.29,VWS V14.00,2013-01-29 22:05:00,
2013-01-29 17:09:00,38.9,38.1,29.88,SSE,166,0.0,5.0,97,0.00,,---,0.29,VWS V14.00,2013-01-29 22:09:00,
2013-01-29 17:10:00,38.9,38.1,29.88,South,171,0.0,5.0,97,0.00,,---,0.29,VWS V14.00,2013-01-29 22:10:00,
2013-01-29 17:11:00,38.9,38.1,29.88,South,169,0.0,5.0,97,0.00,,---,0.29,VWS V14.00,2013-01-29 22:11:00,
2013-01-29 17:15:00,38.9,38.1,29.88,SW,220,4.0,6.0,97,0.00,,---,0.29,VWS V14.00,2013-01-29 22:15:00,
2013-01-29 17:16:00,38.9,38.1,29.88,SSW,202,4.0,7.0,97,0.00,,---,0.29,VWS V14.00,2013-01-29 22:16:00,
2013-01-29 17:18:00,38.9,38.1,29.87,SW,217,0.0,9.0,97,0.00,,---,0.29,VWS V14.00,2013-01-29 22:18:00,
2013-01-29 17:19:00,38.9,38.1,29.87,SSE,157,1.0,9.0,97,0.00,,---,0.29,VWS V14.00,2013-01-29 22:19:00,
2013-01-29 17:21:00,38.9,38.1,29.87,SSE,157,2.0,9.0,97,0.00,,---,0.29,VWS V14.00,2013-01-29 22:21:00,
2013-01-29 17:22:00,38.9,38.1,29.87,South,183,3.0,9.0,97,0.00,,---,0.29,VWS V14.00,2013-01-29 22:22:00,
2013-01-29 17:23:00,38.9,38.1,29.87,SW,222,3.0,9.0,97,0.00,,---,0.29,VWS V14.00,2013-01-29 22:23:00,
2013-01-29 17:24:00,38.9,38.1,29.87,SSW,198,0.0,9.0,97,0.00,,---,0.29,VWS V14.00,2013-01-29 22:24:00,
2013-01-29 17:27:00,38.9,38.1,29.87,South,181,0.0,9.0,97,0.00,,---,0.29,VWS V14.00,2013-01-29 22:27:00,
2013-01-29 17:28:00,38.9,38.1,29.87,SSE,159,2.0,9.0,97,0.00,,---,0.29,VWS V14.00,2013-01-29 22:28:00,
2013-01-29 17:29:00,38.9,38.1,29.87,South,186,1.0,11.0,97,0.00,,---,0.29,VWS V14.00,2013-01-29 22:29:00,
2013-01-29 17:32:00,38.9,38.1,29.87,SSW,211,1.0,11.0,97,0.00,,---,0.29,VWS V14.00,2013-01-29 22:32:00,
2013-01-29 17:35:00,38.9,38.1,29.87,SSW,212,4.0,11.0,97,0.00,,---,0.29,VWS V14.00,2013-01-29 22:35:00,
2013-01-29 17:36:00,38.9,38.1,29.87,South,182,2.0,12.0,97,0.00,,---,0.29,VWS V14.00,2013-01-29 22:36:00,
2013-01-29 17:37:00,38.9,38.1,29.87,SSE,166,1.0,12.0,97,0.00,,---,0.29,VWS V14.00,2013-01-29 22:37:00,
2013-01-29 17:40:00,38.9,38.1,29.87,South,179,2.0,12.0,97,0.00,,---,0.29,VWS V14.00,2013-01-29 22:40:00,
2013-01-29 17:41:00,38.9,38.1,29.87,South,181,0.0,12.0,97,0.00,,---,0.29,VWS V14.00,2013-01-29 22:41:00,
2013-01-29 17:42:00,38.9,38.1,29.87,South,182,1.0,12.0,97,0.00,,---,0.29,VWS V14.00,2013-01-29 22:42:00,
2013-01-29 17:43:00,38.9,38.1,29.87,SSW,207,1.0,12.0,97,0.00,,---,0.29,VWS V14.00,2013-01-29 22:43:00,
2013-01-29 17:45:00,38.9,38.1,29.87,SSE,162,1.0,12.0,97,0.00,,---,0.29,VWS V14.00,2013-01-29 22:45:00,
2013-01-29 17:46:00,38.9,38.1,29.87,SSW,204,3.0,12.0,97,0.00,,---,0.29,VWS V14.00,2013-01-29 22:46:00,
2013-01-29 17:47:00,38.9,38.1,29.87,South,186,6.0,12.0,97,0.00,,---,0.29,VWS V14.00,2013-01-29 22:47:00,
2013-01-29 17:48:00,38.9,38.1,29.87,South,182,7.0,12.0,97,0.00,,---,0.29,VWS V14.00,2013-01-29 22:48:00,
2013-01-29 17:52:00,38.9,38.1,29.86,South,183,0.0,12.0,97,0.00,,---,0.29,VWS V14.00,2013-01-29 22:52:00,
2013-01-29 17:53:00,38.9,38.1,29.86,SSW,197,10.0,12.0,97,0.00,,---,0.29,VWS V14.00,2013-01-29 22:53:00,
2013-01-29 17:54:00,38.9,38.1,29.86,SSE,162,1.0,15.0,97,0.00,,---,0.29,VWS V14.00,2013-01-29 22:54:00,
2013-01-29 17:57:00,38.9,38.1,29.86,South,185,4.0,15.0,97,0.00,,---,0.29,VWS V14.00,2013-01-29 22:57:00,
2013-01-29 17:59:00,38.9,38.1,29.86,SSE,164,3.0,6.0,97,0.00,,---,0.29,VWS V14.00,2013-01-29 22:59:00,
2013-01-29 18:00:00,38.9,38.1,29.86,SW,225,10.0,10.0,97,0.00,,---,0.29,VWS V14.00,2013-01-29 23:00:00,
2013-01-29 18:03:00,38.9,38.1,29.86,SSW,200,2.0,10.0,97,0.00,,---,0.29,VWS V14.00,2013-01-29 23:03:00,
2013-01-29 18:05:00,38.9,38.1,29.86,South,171,0.0,10.0,97,0.00,,---,0.29,VWS V14.00,2013-01-29 23:05:00,
2013-01-29 18:06:00,38.9,38.1,29.86,SSW,197,0.0,10.0,97,0.00,,---,0.29,VWS V14.00,2013-01-29 23:06:00,
2013-01-29 18:10:00,38.9,38.1,29.86,South,173,5.0,10.0,97,0.00,,---,0.29,VWS V14.00,2013-01-29 23:10:00,
2013-01-29 18:11:00,38.9,38.1,29.85,SSW,198,2.0,10.0,97,0.00,,---,0.29,VWS V14.00,2013-01-29 23:11:00,
2013-01-29 18:14:00,38.9,38.1,29.85,South,178,6.0,10.0,97,0.00,,---,0.29,VWS V14.00,2013-01-29 23:14:00,
2013-01-29 18:16:00,38.9,38.1,29.85,South,171,2.0,10.0,97,0.00,,---,0.29,VWS V14.00,2013-01-29 23:16:00,
2013-01-29 18:21:00,38.9,38.1,29.85,SSW,204,0.0,10.0,97,0.00,,---,0.29,VWS V14.00,2013-01-29 23:21:00,
2013-01-29 18:22:00,38.9,38.1,29.85,South,175,2.0,10.0,97,0.00,,---,0.29,VWS V14.00,2013-01-29 23:22:00,
2013-01-29 18:23:00,38.9,38.1,29.85,SSE,167,2.0,10.0,97,0.00,,---,0.29,VWS V14.00,2013-01-29 23:23:00,
2013-01-29 18:26:00,38.9,38.1,29.85,SSW,204,4.0,10.0,97,0.00,,---,0.29,VWS V14.00,2013-01-29 23:26:00,
2013-01-29 18:27:00,38.9,38.1,29.85,South,176,0.0,10.0,97,0.00,,---,0.29,VWS V14.00,2013-01-29 23:27:00,
2013-01-29 18:28:00,38.9,38.1,29.85,SSE,167,2.0,10.0,97,0.00,,---,0.29,VWS V14.00,2013-01-29 23:28:00,
2013-01-29 18:29:00,38.9,38.1,29.86,SSE,163,0.0,7.0,97,0.00,,---,0.29,VWS V14.00,2013-01-29 23:29:00,
2013-01-29 18:31:00,38.9,38.1,29.86,South,184,4.0,7.0,97,0.00,,---,0.29,VWS V14.00,2013-01-29 23:31:00,
2013-01-29 18:33:00,38.9,38.1,29.85,SSW,198,4.0,7.0,97,0.00,,---,0.29,VWS V14.00,2013-01-29 23:33:00,
2013-01-29 18:35:00,38.9,38.1,29.85,SSE,167,1.0,10.0,97,0.00,,---,0.29,VWS V14.00,2013-01-29 23:35:00,
2013-01-29 18:37:00,38.9,38.1,29.85,SSW,193,1.0,10.0,97,0.00,,---,0.29,VWS V14.00,2013-01-29 23:37:00,
2013-01-29 18:39:00,38.9,38.1,29.85,SSE,152,2.0,10.0,97,0.00,,---,0.29,VWS V14.00,2013-01-29 23:39:00,
2013-01-29 18:40:00,38.9,38.1,29.85,SSE,161,6.0,10.0,97,0.00,,---,0.29,VWS V14.00,2013-01-29 23:40:00,
2013-01-29 18:42:00,38.9,38.1,29.85,South,182,1.0,10.0,97,0.00,,---,0.29,VWS V14.00,2013-01-29 23:42:00,
2013-01-29 18:43:00,38.9,38.1,29.85,SE,140,5.0,10.0,97,0.00,,---,0.29,VWS V14.00,2013-01-29 23:43:00,
2013-01-29 18:45:00,38.9,38.1,29.85,SSE,165,2.0,11.0,97,0.00,,---,0.29,VWS V14.00,2013-01-29 23:45:00,
2013-01-29 18:48:00,38.9,38.1,29.85,SSW,198,1.0,11.0,97,0.00,,---,0.29,VWS V14.00,2013-01-29 23:48:00,
2013-01-29 18:50:00,38.9,38.1,29.85,South,182,5.0,11.0,97,0.00,,---,0.29,VWS V14.00,2013-01-29 23:50:00,
2013-01-29 18:53:00,38.9,38.1,29.84,South,169,4.0,12.0,97,0.00,,---,0.29,VWS V14.00,2013-01-29 23:53:00,
2013-01-29 18:55:00,38.9,38.1,29.84,SSW,192,2.0,12.0,97,0.00,,---,0.29,VWS V14.00,2013-01-29 23:55:00,
2013-01-29 18:58:00,38.9,38.1,29.84,SSW,199,4.0,14.0,97,0.01,,---,0.30,VWS V14.00,2013-01-29 23:58:00,
2013-01-29 19:00:00,38.9,38.1,29.84,SSW,192,2.0,13.0,97,0.01,,---,0.30,VWS V14.00,2013-01-30 00:00:00,
2013-01-29 19:03:00,38.9,38.1,29.84,South,175,4.0,13.0,97,0.01,,---,0.30,VWS V14.00,2013-01-30 00:03:00,
2013-01-29 19:04:00,38.9,38.1,29.84,SW,232,9.0,13.0,97,0.01,,---,0.30,VWS V14.00,2013-01-30 00:04:00,
2013-01-29 19:05:00,38.9,38.1,29.84,South,173,4.0,13.0,97,0.01,,---,0.30,VWS V14.00,2013-01-30 00:05:00,
2013-01-29 19:06:00,38.9,38.1,29.84,SSW,196,12.0,13.0,97,0.01,,---,0.30,VWS V14.00,2013-01-30 00:06:00,
2013-01-29 19:09:00,38.9,38.1,29.84,SSE,162,3.0,13.0,97,0.01,,---,0.30,VWS V14.00,2013-01-30 00:09:00,
2013-01-29 19:10:00,38.9,38.1,29.84,South,170,9.0,13.0,97,0.01,,---,0.30,VWS V14.00,2013-01-30 00:10:00,
2013-01-29 19:11:00,38.9,38.1,29.84,SSW,200,0.0,13.0,97,0.01,,---,0.30,VWS V14.00,2013-01-30 00:11:00,
2013-01-29 19:14:00,38.9,38.1,29.83,South,186,1.0,13.0,97,0.01,,---,0.30,VWS V14.00,2013-01-30 00:14:00,
2013-01-29 19:15:00,38.9,38.1,29.83,SSW,192,2.0,13.0,97,0.01,,---,0.30,VWS V14.00,2013-01-30 00:15:00,
2013-01-29 19:17:00,38.9,38.1,29.83,SW,219,3.0,13.0,97,0.01,,---,0.30,VWS V14.00,2013-01-30 00:17:00,
2013-01-29 19:19:00,38.9,38.1,29.83,South,181,5.0,13.0,97,0.01,,---,0.30,VWS V14.00,2013-01-30 00:19:00,
2013-01-29 19:20:00,38.9,38.1,29.83,SSW,192,0.0,13.0,97,0.01,,---,0.30,VWS V14.00,2013-01-30 00:20:00,
2013-01-29 19:22:00,38.9,38.1,29.83,South,181,1.0,13.0,97,0.01,,---,0.30,VWS V14.00,2013-01-30 00:22:00,
2013-01-29 19:23:00,38.9,38.1,29.83,SSW,192,3.0,13.0,97,0.01,,---,0.30,VWS V14.00,2013-01-30 00:23:00,
2013-01-29 19:26:00,38.9,38.1,29.83,SW,226,5.0,14.0,97,0.01,,---,0.30,VWS V14.00,2013-01-30 00:26:00,
2013-01-29 19:27:00,38.9,38.1,29.82,South,188,0.0,14.0,97,0.01,,---,0.30,VWS V14.00,2013-01-30 00:27:00,
2013-01-29 19:28:00,38.9,38.1,29.82,SSE,159,2.0,14.0,97,0.01,,---,0.30,VWS V14.00,2013-01-30 00:28:00,
2013-01-29 19:32:00,38.9,38.1,29.82,SSE,159,4.0,11.0,97,0.01,,---,0.30,VWS V14.00,2013-01-30 00:32:00,
2013-01-29 19:33:00,38.9,38.1,29.82,SSW,209,5.0,11.0,97,0.01,,---,0.30,VWS V14.00,2013-01-30 00:33:00,
2013-01-29 19:35:00,38.9,38.1,29.82,SSW,207,0.0,12.0,97,0.01,,---,0.30,VWS V14.00,2013-01-30 00:35:00,
2013-01-29 19:38:00,38.9,38.1,29.82,SSE,159,4.0,13.0,97,0.01,,---,0.30,VWS V14.00,2013-01-30 00:38:00,
2013-01-29 19:39:00,38.9,38.1,29.82,South,190,1.0,13.0,97,0.01,,---,0.30,VWS V14.00,2013-01-30 00:39:00,
2013-01-29 19:40:00,38.9,38.1,29.82,SSW,192,9.0,13.0,97,0.01,,---,0.30,VWS V14.00,2013-01-30 00:40:00,
2013-01-29 19:41:00,38.9,38.1,29.82,SSW,193,5.0,13.0,97,0.01,,---,0.30,VWS V14.00,2013-01-30 00:41:00,
2013-01-29 19:43:00,38.9,38.1,29.81,South,183,2.0,13.0,97,0.01,,---,0.30,VWS V14.00,2013-01-30 00:43:00,
2013-01-29 19:47:00,38.9,38.1,29.81,South,184,0.0,14.0,97,0.01,,---,0.30,VWS V14.00,2013-01-30 00:47:00,
2013-01-29 19:48:00,38.9,38.1,29.81,South,185,0.0,14.0,97,0.01,,---,0.30,VWS V14.00,2013-01-30 00:48:00,
2013-01-29 19:49:00,38.9,38.1,29.81,South,182,1.0,14.0,97,0.01,,---,0.30,VWS V14.00,2013-01-30 00:49:00,
2013-01-29 19:53:00,38.9,38.1,29.80,South,186,1.0,14.0,97,0.01,,---,0.30,VWS V14.00,2013-01-30 00:53:00,
2013-01-29 19:54:00,38.9,38.1,29.80,South,178,10.0,14.0,97,0.01,,---,0.30,VWS V14.00,2013-01-30 00:54:00,
2013-01-29 19:55:00,38.9,38.1,29.80,South,175,0.0,14.0,97,0.01,,---,0.30,VWS V14.00,2013-01-30 00:55:00,
2013-01-29 19:57:00,38.9,38.1,29.80,South,173,3.0,14.0,97,0.01,,---,0.30,VWS V14.00,2013-01-30 00:57:00,
2013-01-29 20:00:00,38.9,38.1,29.80,SSW,208,6.0,14.0,97,0.00,,---,0.30,VWS V14.00,2013-01-30 01:00:00,
2013-01-29 20:02:00,38.9,38.1,29.80,SSW,198,2.0,14.0,97,0.00,,---,0.30,VWS V14.00,2013-01-30 01:02:00,
2013-01-29 20:04:00,38.9,38.1,29.80,South,186,7.0,14.0,97,0.00,,---,0.30,VWS V14.00,2013-01-30 01:04:00,
2013-01-29 20:05:00,38.9,38.1,29.80,South,186,1.0,14.0,97,0.00,,---,0.30,VWS V14.00,2013-01-30 01:05:00,
2013-01-29 20:07:00,38.9,38.1,29.79,SSW,194,11.0,14.0,97,0.00,,---,0.30,VWS V14.00,2013-01-30 01:07:00,
2013-01-29 20:10:00,38.9,38.1,29.79,South,177,5.0,14.0,97,0.00,,---,0.30,VWS V14.00,2013-01-30 01:10:00,
2013-01-29 20:11:00,38.9,38.1,29.79,South,184,3.0,14.0,97,0.00,,---,0.30,VWS V14.00,2013-01-30 01:11:00,
2013-01-29 20:12:00,38.9,38.1,29.80,SSW,201,12.0,14.0,97,0.00,,---,0.30,VWS V14.00,2013-01-30 01:12:00,
2013-01-29 20:14:00,38.9,38.1,29.79,SE,146,4.0,14.0,97,0.00,,---,0.30,VWS V14.00,2013-01-30 01:14:00,
2013-01-29 20:16:00,38.9,38.1,29.79,South,177,0.0,14.0,97,0.00,,---,0.30,VWS V14.00,2013-01-30 01:16:00,
2013-01-29 20:17:00,38.9,38.1,29.79,SSW,207,10.0,14.0,97,0.00,,---,0.30,VWS V14.00,2013-01-30 01:17:00,
2013-01-29 20:18:00,38.9,38.1,29.79,SSW,195,5.0,14.0,97,0.00,,---,0.30,VWS V14.00,2013-01-30 01:18:00,
2013-01-29 20:20:00,38.9,38.1,29.78,South,170,2.0,15.0,97,0.00,,---,0.30,VWS V14.00,2013-01-30 01:20:00,
2013-01-29 20:22:00,38.9,38.1,29.78,SSE,164,3.0,15.0,97,0.00,,---,0.30,VWS V14.00,2013-01-30 01:22:00,
2013-01-29 20:23:00,38.9,38.1,29.78,South,180,9.0,16.0,97,0.00,,---,0.30,VWS V14.00,2013-01-30 01:23:00,
2013-01-29 20:24:00,38.9,38.1,29.78,South,173,10.0,16.0,97,0.00,,---,0.30,VWS V14.00,2013-01-30 01:24:00,
2013-01-29 20:25:00,38.9,38.1,29.78,South,187,3.0,16.0,97,0.00,,---,0.30,VWS V14.00,2013-01-30 01:25:00,
2013-01-29 20:27:00,38.9,38.1,29.78,SSW,211,7.0,16.0,97,0.00,,---,0.30,VWS V14.00,2013-01-30 01:27:00,
2013-01-29 20:29:00,38.9,38.1,29.77,SSW,196,2.0,9.0,97,0.00,,---,0.30,VWS V14.00,2013-01-30 01:29:00,
2013-01-29 20:30:00,38.9,38.1,29.77,SSE,162,2.0,14.0,97,0.00,,---,0.30,VWS V14.00,2013-01-30 01:30:00,
2013-01-29 20:31:00,38.9,38.1,29.77,SSW,199,4.0,14.0,97,0.00,,---,0.30,VWS V14.00,2013-01-30 01:31:00,
2013-01-29 20:33:00,38.9,38.1,29.77,South,178,12.0,19.0,97,0.00,,---,0.30,VWS V14.00,2013-01-30 01:33:00,
2013-01-29 20:34:00,38.9,38.1,29.77,SSE,161,4.0,19.0,97,0.00,,---,0.30,VWS V14.00,2013-01-30 01:34:00,
2013-01-29 20:35:00,38.9,38.1,29.77,SSW,203,11.0,19.0,97,0.00,,---,0.30,VWS V14.00,2013-01-30 01:35:00,
2013-01-29 20:36:00,-39.3,-39.8,29.77,SSW,197,5.0,19.0,97,0.00,,---,0.30,VWS V14.00,2013-01-30 01:36:00,
2013-01-29 20:38:00,-39.3,-39.8,29.77,South,190,13.0,19.0,97,0.00,,---,0.30,VWS V14.00,2013-01-30 01:38:00,
2013-01-29 20:40:00,-39.3,-39.8,29.77,SSE,160,3.0,19.0,97,0.00,,---,0.30,VWS V14.00,2013-01-30 01:40:00,
2013-01-29 20:41:00,-39.3,-39.8,29.77,South,175,3.0,19.0,97,0.00,,---,0.30,VWS V14.00,2013-01-30 01:41:00,
2013-01-29 20:42:00,-39.3,-39.8,29.76,SSW,206,4.0,19.0,97,0.00,,---,0.30,VWS V14.00,2013-01-30 01:42:00,
2013-01-29 20:43:00,-39.3,-43.1,29.76,South,178,9.0,19.0,80,0.00,,---,0.30,VWS V14.00,2013-01-30 01:43:00,
2013-01-29 20:46:00,-39.3,-43.1,29.76,SSE,148,2.0,19.0,80,0.00,,---,0.30,VWS V14.00,2013-01-30 01:46:00,
2013-01-29 20:47:00,-39.3,-43.1,29.76,SSW,205,3.0,19.0,80,0.00,,---,0.30,VWS V14.00,2013-01-30 01:47:00,
2013-01-29 20:48:00,-39.3,-43.1,29.76,South,184,10.0,19.0,80,0.00,,---,0.30,VWS V14.00,2013-01-30 01:48:00,
2013-01-29 20:49:00,-39.3,-43.1,29.76,South,171,0.0,19.0,80,0.00,,---,0.30,VWS V14.00,2013-01-30 01:49:00,
2013-01-29 20:51:00,-39.3,-43.1,29.76,SE,127,4.0,19.0,80,0.00,,---,0.30,VWS V14.00,2013-01-30 01:51:00,
2013-01-29 20:52:00,58.2,52.1,29.76,SSE,167,5.0,19.0,80,0.00,,---,0.30,VWS V14.00,2013-01-30 01:52:00,
2013-01-29 20:53:00,58.2,56.5,29.57,SE,145,1.0,19.0,94,0.00,,---,0.30,VWS V14.00,2013-01-30 01:53:00,
2013-01-29 20:56:00,58.2,56.5,29.56,SW,226,10.0,19.0,94,0.00,,---,0.30,VWS V14.00,2013-01-30 01:56:00,
2013-01-29 20:57:00,58.3,56.6,29.56,South,188,5.0,23.0,94,0.00,,---,0.30,VWS V14.00,2013-01-30 01:57:00,
2013-01-29 20:59:00,58.3,56.6,29.56,South,173,2.0,12.0,94,0.00,,---,0.30,VWS V14.00,2013-01-30 01:59:00,
2013-01-29 21:01:00,58.3,56.6,29.55,South,189,13.0,19.0,94,0.00,,---,0.30,VWS V14.00,2013-01-30 02:01:00,
2013-01-29 21:02:00,58.3,56.3,29.55,SSE,155,4.0,19.0,93,0.00,,---,0.30,VWS V14.00,2013-01-30 02:02:00,
2013-01-29 21:04:00,58.3,56.3,29.55,SE,146,1.0,22.0,93,0.00,,---,0.30,VWS V14.00,2013-01-30 02:04:00,
2013-01-29 21:08:00,58.4,56.4,29.55,South,170,4.0,22.0,93,0.00,,---,0.30,VWS V14.00,2013-01-30 02:08:00,
2013-01-29 21:10:00,58.4,56.4,29.55,SW,231,11.0,22.0,93,0.00,,---,0.30,VWS V14.00,2013-01-30 02:10:00,
2013-01-29 21:11:00,58.4,56.4,29.55,South,173,5.0,22.0,93,0.00,,---,0.30,VWS V14.00,2013-01-30 02:11:00,
2013-01-29 21:14:00,58.4,56.4,29.55,South,180,0.0,22.0,93,0.00,,---,0.30,VWS V14.00,2013-01-30 02:14:00,
2013-01-29 21:15:00,58.4,56.4,29.55,SSE,163,6.0,22.0,93,0.00,,---,0.30,VWS V14.00,2013-01-30 02:15:00,
2013-01-29 21:17:00,58.4,56.4,29.55,SE,144,4.0,22.0,93,0.00,,---,0.30,VWS V14.00,2013-01-30 02:17:00,
2013-01-29 21:19:00,58.4,56.4,29.54,SW,224,20.0,23.0,93,0.00,,---,0.30,VWS V14.00,2013-01-30 02:19:00,
2013-01-29 21:22:00,58.5,56.5,29.54,South,171,2.0,23.0,93,0.00,,---,0.30,VWS V14.00,2013-01-30 02:22:00,
2013-01-29 21:24:00,58.5,56.5,29.54,South,180,9.0,23.0,93,0.00,,---,0.30,VWS V14.00,2013-01-30 02:24:00,
2013-01-29 21:27:00,58.6,56.3,29.54,SSE,149,11.0,23.0,92,0.00,,---,0.30,VWS V14.00,2013-01-30 02:27:00,
2013-01-29 21:28:00,58.6,56.3,29.54,SSW,193,10.0,23.0,92,0.00,,---,0.30,VWS V14.00,2013-01-30 02:28:00,
2013-01-29 21:29:00,58.7,56.4,29.54,SW,219,14.0,17.0,92,0.00,,---,0.30,VWS V14.00,2013-01-30 02:29:00,
2013-01-29 21:30:00,58.7,56.4,29.54,SSE,155,5.0,17.0,92,0.00,,---,0.30,VWS V14.00,2013-01-30 02:30:00,
2013-01-29 21:34:00,58.9,56.6,29.54,South,178,0.0,21.0,92,0.00,,---,0.30,VWS V14.00,2013-01-30 02:34:00,
2013-01-29 21:35:00,58.9,56.6,29.53,SSE,159,5.0,21.0,92,0.00,,---,0.30,VWS V14.00,2013-01-30 02:35:00,
2013-01-29 21:36:00,58.8,56.5,29.53,SSW,206,19.0,22.0,92,0.00,,---,0.30,VWS V14.00,2013-01-30 02:36:00,
2013-01-29 21:39:00,58.8,56.5,29.53,SE,146,7.0,22.0,92,0.00,,---,0.30,VWS V14.00,2013-01-30 02:39:00,
2013-01-29 21:41:00,58.8,56.5,29.53,SSW,196,6.0,22.0,92,0.00,,---,0.30,VWS V14.00,2013-01-30 02:41:00,
2013-01-29 21:42:00,58.8,56.5,29.53,SSW,194,5.0,22.0,92,0.00,,---,0.30,VWS V14.00,2013-01-30 02:42:00,
2013-01-29 21:45:00,58.9,56.6,29.52,South,179,4.0,22.0,92,0.00,,---,0.30,VWS V14.00,2013-01-30 02:45:00,
2013-01-29 21:47:00,59.0,56.7,29.52,SSE,156,8.0,22.0,92,0.00,,---,0.30,VWS V14.00,2013-01-30 02:47:00,
2013-01-29 21:48:00,59.0,56.7,29.52,South,179,5.0,22.0,92,0.00,,---,0.30,VWS V14.00,2013-01-30 02:48:00,
2013-01-29 21:50:00,59.0,56.7,29.52,South,169,3.0,22.0,92,0.00,,---,0.30,VWS V14.00,2013-01-30 02:50:00,
2013-01-29 21:52:00,59.0,56.7,29.52,South,184,4.0,22.0,92,0.00,,---,0.30,VWS V14.00,2013-01-30 02:52:00,
2013-01-29 21:53:00,59.0,56.7,29.52,SSE,167,3.0,22.0,92,0.00,,---,0.30,VWS V14.00,2013-01-30 02:53:00,
2013-01-29 21:55:00,59.0,56.7,29.51,South,181,5.0,22.0,92,0.00,,---,0.30,VWS V14.00,2013-01-30 02:55:00,
2013-01-29 21:58:00,59.0,56.4,29.51,SSE,163,1.0,22.0,91,0.00,,---,0.30,VWS V14.00,2013-01-30 02:58:00,
2013-01-29 22:00:00,59.0,56.4,29.51,South,181,4.0,17.0,91,0.00,,---,0.30,VWS V14.00,2013-01-30 03:00:00,
2013-01-29 22:01:00,59.0,56.4,29.51,SSW,199,4.0,17.0,91,0.00,,---,0.30,VWS V14.00,2013-01-30 03:01:00,
2013-01-29 22:02:00,59.0,56.4,29.51,SSW,199,15.0,17.0,91,0.00,,---,0.30,VWS V14.00,2013-01-30 03:02:00,
2013-01-29 22:03:00,59.0,56.4,29.51,WSW,250,5.0,17.0,91,0.00,,---,0.30,VWS V14.00,2013-01-30 03:03:00,
2013-01-29 22:05:00,59.0,56.4,29.51,SW,236,7.0,17.0,91,0.00,,---,0.30,VWS V14.00,2013-01-30 03:05:00,
2013-01-29 22:07:00,59.0,56.4,29.52,South,188,7.0,17.0,91,0.00,,---,0.30,VWS V14.00,2013-01-30 03:07:00,
2013-01-29 22:08:00,59.0,56.4,29.52,SSW,195,0.0,17.0,91,0.00,,---,0.30,VWS V14.00,2013-01-30 03:08:00,
2013-01-29 22:09:00,59.0,56.4,29.52,WSW,252,3.0,17.0,91,0.00,,---,0.30,VWS V14.00,2013-01-30 03:09:00,
2013-01-29 22:12:00,59.0,56.4,29.53,South,173,0.0,17.0,91,0.00,,---,0.30,VWS V14.00,2013-01-30 03:12:00,
2013-01-29 22:13:00,59.0,56.4,29.53,South,186,0.0,17.0,91,0.01,,---,0.31,VWS V14.00,2013-01-30 03:13:00,
2013-01-29 22:14:00,59.0,56.4,29.52,SW,236,5.0,17.0,91,0.03,,---,0.33,VWS V14.00,2013-01-30 03:14:00,
2013-01-29 22:18:00,58.7,56.4,29.52,SSW,197,1.0,17.0,92,0.04,,---,0.34,VWS V14.00,2013-01-30 03:18:00,
2013-01-29 22:19:00,58.6,56.3,29.52,SW,232,0.0,17.0,92,0.04,,---,0.34,VWS V14.00,2013-01-30 03:19:00,
2013-01-29 22:21:00,58.4,56.1,29.52,SSW,195,5.0,17.0,92,0.05,,---,0.35,VWS V14.00,2013-01-30 03:21:00,
2013-01-29 22:24:00,58.3,56.3,29.52,SSW,204,2.0,17.0,93,0.05,,---,0.35,VWS V14.00,2013-01-30 03:24:00,
2013-01-29 22:26:00,58.2,56.2,29.51,SSE,153,1.0,17.0,93,0.06,,---,0.36,VWS V14.00,2013-01-30 03:26:00,
2013-01-29 22:28:00,58.2,56.2,29.51,SW,224,0.0,6.0,93,0.06,,---,0.36,VWS V14.00,2013-01-30 03:28:00,
2013-01-29 22:29:00,58.2,56.2,29.50,SSW,197,4.0,6.0,93,0.06,,---,0.36,VWS V14.00,2013-01-30 03:29:00,
2013-01-29 22:31:00,58.2,56.2,29.51,SSW,193,0.0,6.0,93,0.06,,---,0.36,VWS V14.00,2013-01-30 03:31:00,
2013-01-29 22:32:00,58.2,56.2,29.51,South,175,4.0,6.0,93,0.06,,---,0.36,VWS V14.00,2013-01-30 03:32:00,
2013-01-29 22:34:00,58.2,56.5,29.51,SSW,193,0.0,6.0,94,0.06,,---,0.36,VWS V14.00,2013-01-30 03:34:00,
2013-01-29 22:35:00,58.2,56.5,29.51,SSW,209,3.0,6.0,94,0.06,,---,0.36,VWS V14.00,2013-01-30 03:35:00,
2013-01-29 22:36:00,58.2,56.5,29.51,SSW,203,0.0,6.0,94,0.06,,---,0.36,VWS V14.00,2013-01-30 03:36:00,
2013-01-29 22:39:00,58.1,56.4,29.51,SSW,206,0.0,6.0,94,0.06,,---,0.36,VWS V14.00,2013-01-30 03:39:00,
2013-01-29 22:41:00,58.1,56.4,29.51,SSW,205,0.0,6.0,94,0.06,,---,0.36,VWS V14.00,2013-01-30 03:41:00,
2013-01-29 22:42:00,58.0,56.3,29.50,SSW,207,2.0,6.0,94,0.07,,---,0.37,VWS V14.00,2013-01-30 03:42:00,
2013-01-29 22:46:00,58.0,56.3,29.51,SW,230,0.0,10.0,94,0.07,,---,0.37,VWS V14.00,2013-01-30 03:46:00,
2013-01-29 22:47:00,57.9,56.2,29.51,West,260,6.0,10.0,94,0.07,,---,0.37,VWS V14.00,2013-01-30 03:47:00,
2013-01-29 22:49:00,57.8,56.1,29.51,West,276,0.0,10.0,94,0.07,,---,0.37,VWS V14.00,2013-01-30 03:49:00,
2013-01-29 22:52:00,57.7,56.0,29.51,West,268,8.0,10.0,94,0.07,,---,0.37,VWS V14.00,2013-01-30 03:52:00,
2013-01-29 22:53:00,57.7,56.0,29.51,West,263,1.0,10.0,94,0.08,,---,0.38,VWS V14.00,2013-01-30 03:53:00,
2013-01-29 22:55:00,57.7,56.0,29.51,SW,236,2.0,11.0,94,0.08,,---,0.38,VWS V14.00,2013-01-30 03:55:00,
2013-01-29 22:57:00,57.7,56.3,29.50,SSW,209,2.0,11.0,95,0.08,,---,0.38,VWS V14.00,2013-01-30 03:57:00,
2013-01-29 22:58:00,57.8,56.4,29.50,SW,234,1.0,11.0,95,0.09,,---,0.39,VWS V14.00,2013-01-30 03:58:00,
2013-01-29 23:00:00,58.0,56.6,29.50,SSE,158,2.0,8.0,95,0.09,,---,0.39,VWS V14.00,2013-01-30 04:00:00,
2013-01-29 23:03:00,58.2,56.8,29.49,SSW,200,1.0,8.0,95,0.09,,---,0.39,VWS V14.00,2013-01-30 04:03:00,
2013-01-29 23:04:00,58.2,56.8,29.49,South,169,0.0,8.0,95,0.09,,---,0.39,VWS V14.00,2013-01-30 04:04:00,
2013-01-29 23:06:00,58.2,56.8,29.49,SSW,203,0.0,8.0,95,0.09,,---,0.39,VWS V14.00,2013-01-30 04:06:00,
2013-01-29 23:09:00,58.3,56.9,29.48,South,182,2.0,8.0,95,0.09,,---,0.39,VWS V14.00,2013-01-30 04:09:00,
2013-01-29 23:10:00,58.3,56.9,29.48,SW,214,5.0,8.0,95,0.09,,---,0.39,VWS V14.00,2013-01-30 04:10:00,
2013-01-29 23:13:00,58.4,57.0,29.48,SSW,205,3.0,8.0,95,0.09,,---,0.39,VWS V14.00,2013-01-30 04:13:00,
2013-01-29 23:14:00,58.4,57.0,29.48,SSW,212,1.0,8.0,95,0.09,,---,0.39,VWS V14.00,2013-01-30 04:14:00,
2013-01-29 23:15:00,58.3,56.9,29.48,SSW,212,0.0,8.0,95,0.09,,---,0.39,VWS V14.00,2013-01-30 04:15:00,
2013-01-29 23:19:00,58.2,56.8,29.48,SSW,207,0.0,8.0,95,0.09,,---,0.39,VWS V14.00,2013-01-30 04:19:00,
2013-01-29 23:20:00,58.2,56.8,29.48,SSW,207,1.0,8.0,95,0.09,,---,0.39,VWS V14.00,2013-01-30 04:20:00,
2013-01-29 23:23:00,58.1,56.7,29.48,SSW,211,2.0,11.0,95,0.09,,---,0.39,VWS V14.00,2013-01-30 04:23:00,
2013-01-29 23:25:00,58.0,56.6,29.49,SW,217,0.0,11.0,95,0.09,,---,0.39,VWS V14.00,2013-01-30 04:25:00,
2013-01-29 23:26:00,58.0,56.6,29.48,SW,215,0.0,11.0,95,0.09,,---,0.39,VWS V14.00,2013-01-30 04:26:00,
2013-01-29 23:28:00,57.9,56.5,29.48,SSW,208,0.0,11.0,95,0.09,,---,0.39,VWS V14.00,2013-01-30 04:28:00,
2013-01-29 23:29:00,57.9,56.5,29.48,SSW,208,0.0,0.0,95,0.03,,---,0.39,VWS V14.00,2013-01-30 04:29:00,
2013-01-29 23:31:00,57.9,56.5,29.48,SSW,205,2.0,2.0,95,0.03,,---,0.39,VWS V14.00,2013-01-30 04:31:00,
2013-01-29 23:32:00,57.9,56.5,29.48,SSW,206,1.0,2.0,95,0.03,,---,0.39,VWS V14.00,2013-01-30 04:32:00,
2013-01-29 23:34:00,57.8,56.4,29.48,SSW,211,0.0,3.0,95,0.03,,---,0.39,VWS V14.00,2013-01-30 04:34:00,
2013-01-29 23:37:00,57.7,56.3,29.48,WSW,243,1.0,5.0,95,0.03,,---,0.39,VWS V14.00,2013-01-30 04:37:00,
2013-01-29 23:38:00,57.7,56.3,29.48,WSW,240,1.0,5.0,95,0.03,,---,0.39,VWS V14.00,2013-01-30 04:38:00,
2013-01-29 23:40:00,57.6,56.2,29.48,WSW,246,1.0,6.0,95,0.03,,---,0.39,VWS V14.00,2013-01-30 04:40:00,
2013-01-29 23:42:00,57.5,56.1,29.48,SW,232,4.0,6.0,95,0.03,,---,0.39,VWS V14.00,2013-01-30 04:42:00,
2013-01-29 23:43:00,57.5,56.1,29.48,SW,231,0.0,6.0,95,0.03,,---,0.39,VWS V14.00,2013-01-30 04:43:00,
2013-01-29 23:45:00,57.4,56.0,29.47,WSW,244,3.0,6.0,95,0.04,,---,0.40,VWS V14.00,2013-01-30 04:45:00,
2013-01-29 23:46:00,57.4,56.0,29.47,WSW,244,3.0,6.0,95,0.04,,---,0.40,VWS V14.00,2013-01-30 04:46:00,
2013-01-29 23:47:00,57.4,56.0,29.47,WSW,256,2.0,6.0,95,0.04,,---,0.40,VWS V14.00,2013-01-30 04:47:00,
2013-01-29 23:48:00,57.3,55.9,29.47,WSW,256,0.0,6.0,95,0.04,,---,0.40,VWS V14.00,2013-01-30 04:48:00,
2013-01-29 23:51:00,57.2,55.8,29.48,WSW,254,1.0,6.0,95,0.05,,---,0.41,VWS V14.00,2013-01-30 04:51:00,
2013-01-29 23:52:00,57.2,55.8,29.47,WSW,254,0.0,6.0,95,0.05,,---,0.41,VWS V14.00,2013-01-30 04:52:00,
2013-01-29 23:53:00,57.1,55.7,29.48,WSW,254,0.0,6.0,95,0.05,,---,0.41,VWS V14.00,2013-01-30 04:53:00,
2013-01-29 23:56:00,57.1,55.7,29.47,West,259,6.0,7.0,95,0.05,,---,0.41,VWS V14.00,2013-01-30 04:56:00,
2013-01-29 23:57:00,57.1,55.7,29.47,West,259,5.0,7.0,95,0.05,,---,0.41,VWS V14.00,2013-01-30 04:57:00,
2013-01-29 23:58:00,57.0,55.6,29.47,West,259,1.0,7.0,95,0.05,,---,0.00,VWS V14.00,2013-01-30 04:58:00,